Provisional Data: Driftwood Branch Sinnemahoning Creek


Please select a monitoring station.
Please select start date.
Please select start date.

Toggle Unit: C/F Toggle Unit: C/F
Sample Time Temperature (C) Temperature (F) Specific Conductivity (mS/cm) pH   Turbidity (NTU+) DO (mg/L)
4/22/2023 7:00:00 PM 12.61 54.698 0.058 6.98 9.8 9.88
4/22/2023 7:15:00 PM 12.52 54.536 0.058 6.97 9.85 9.85
4/22/2023 7:30:00 PM 12.42 54.356 0.058 6.96 9.95 9.84
4/22/2023 7:45:00 PM 12.32 54.176 0.058 6.93 9.92 9.83
4/22/2023 8:00:00 PM 12.21 53.978 0.058 6.92 8.87 9.83
4/22/2023 8:15:00 PM 12.12 53.816 0.058 6.92 8.77 9.84
4/22/2023 8:30:00 PM 12.04 53.672 0.058 6.91 8.82 9.85
4/22/2023 8:45:00 PM 11.98 53.564 0.058 6.91 9.12 9.87
4/22/2023 9:00:00 PM 11.92 53.456 0.058 6.91 9.13 9.88
4/22/2023 9:15:00 PM 11.85 53.33 0.059 6.9 9.43 9.9
4/22/2023 9:30:00 PM 11.79 53.222 0.059 6.9 9.75 9.91
4/22/2023 9:45:00 PM 11.73 53.114 0.059 6.9 10.13 9.93
4/22/2023 10:00:00 PM 11.68 53.024 0.059 6.9 10.11 9.94
4/22/2023 10:15:00 PM 11.62 52.916 0.059 6.9 9.85 9.95
4/22/2023 10:30:00 PM 11.56 52.808 0.059 6.9 9.86 9.97
4/22/2023 10:45:00 PM 11.48 52.664 0.059 6.9 9.74 9.99
4/22/2023 11:00:00 PM 11.4 52.52 0.059 6.89 8.07 10
4/22/2023 11:15:00 PM 11.33 52.394 0.059 6.89 8.19 10.02
4/22/2023 11:30:00 PM 11.26 52.268 0.059 6.9 7.57 10.04
4/22/2023 11:45:00 PM 11.21 52.178 0.059 6.9 7.55 10.06
4/23/2023 12:00:00 AM 11.16 52.088 0.059 6.9 7.26 10.08
4/23/2023 12:15:00 AM 11.11 51.998 0.059 6.9 7.43 10.1
4/23/2023 12:30:00 AM 11.06 51.908 0.059 6.91 7.45 10.09
4/23/2023 12:45:00 AM 11 51.8 0.059 6.89 7.26 10.13
4/23/2023 1:00:00 AM 10.95 51.71 0.059 6.91 7.34 10.15
4/23/2023 1:15:00 AM 10.89 51.602 0.059 6.9 7.26 10.16
4/23/2023 1:30:00 AM 10.83 51.494 0.059 6.91 7.25 10.17
4/23/2023 1:45:00 AM 10.78 51.404 0.059 6.9 7.33 10.19
4/23/2023 2:00:00 AM 10.72 51.296 0.059 6.91 7.22 10.21
4/23/2023 2:15:00 AM 10.66 51.188 0.059 6.91 7.25 10.22
4/23/2023 2:30:00 AM 10.61 51.098 0.059 6.91 7.25 10.23
4/23/2023 2:45:00 AM 10.55 50.99 0.06 6.91 7.26 10.25
4/23/2023 3:00:00 AM 10.49 50.882 0.059 6.91 7.11 10.26
4/23/2023 3:15:00 AM 10.44 50.792 0.06 6.91 7.11 10.28
4/23/2023 3:30:00 AM 10.38 50.684 0.059 6.91 7.15 10.3
4/23/2023 3:45:00 AM 10.32 50.576 0.06 6.91 7.23 10.31
4/23/2023 4:00:00 AM 10.27 50.486 0.06 6.9 7.3 10.33
4/23/2023 4:15:00 AM 10.21 50.378 0.06 6.91 7.18 10.34
4/23/2023 4:30:00 AM 10.15 50.27 0.06 6.91 7.19 10.36
4/23/2023 4:45:00 AM 10.1 50.18 0.06 6.9 7.2 10.37
4/23/2023 5:00:00 AM 10.05 50.09 0.059 6.91 7.13 10.39
4/23/2023 5:15:00 AM 10 50 0.059 6.92 7.05 10.4
4/23/2023 5:30:00 AM 9.94 49.892 0.059 6.91 7.03 10.42
4/23/2023 5:45:00 AM 9.89 49.802 0.059 6.91 7.16 10.45
4/23/2023 6:00:00 AM 9.85 49.73 0.059 6.91 7 10.52
4/23/2023 6:15:00 AM 9.81 49.658 0.059 6.93 7.04 10.57
4/23/2023 6:30:00 AM 9.77 49.586 0.059 6.95 6.91 10.63
4/23/2023 6:45:00 AM 9.75 49.55 0.059 6.95 6.96 10.7
4/23/2023 7:00:00 AM 9.73 49.514 0.059 6.97 6.96 10.76
4/23/2023 7:15:00 AM 9.7 49.46 0.059 6.98 6.9 10.81
4/23/2023 7:30:00 AM 9.7 49.46 0.059 6.99 6.88 10.87
4/23/2023 7:45:00 AM 9.68 49.424 0.059 7.01 7.07 10.91
4/23/2023 8:00:00 AM 9.65 49.37 0.059 7.02 6.75 10.92
4/23/2023 8:15:00 AM 9.64 49.352 0.059 7.02 6.93 10.95
4/23/2023 8:30:00 AM 9.64 49.352 0.059 7.03 6.73 10.98
4/23/2023 8:45:00 AM 9.66 49.388 0.058 7.04 6.82 11.07
4/23/2023 9:00:00 AM 9.76 49.568 0.058 7.06 6.77 11.11
4/23/2023 9:15:00 AM 9.93 49.874 0.058 7.15 6.89 11.34
4/23/2023 9:30:00 AM 10.1 50.18 0.058 7.11 6.8 11.14
4/23/2023 9:45:00 AM 10.16 50.288 0.058 7.1 6.92 11.12
4/23/2023 10:00:00 AM 10.25 50.45 0.058 7.12 7.06 11.16
4/23/2023 10:15:00 AM 10.34 50.612 0.058 7.14 6.74 11.23
4/23/2023 10:30:00 AM 10.57 51.026 0.058 7.17 6.81 11.35
4/23/2023 10:45:00 AM 10.86 51.548 0.058 7.18 6.78 11.15
4/23/2023 11:00:00 AM 10.94 51.692 0.058 7.17 6.83 11.09
4/23/2023 11:15:00 AM 10.88 51.584 0.058 7.15 6.93 10.99
4/23/2023 11:30:00 AM 10.79 51.422 0.058 7.14 7.08 10.92
4/23/2023 11:45:00 AM 10.67 51.206 0.058 7.13 7.2 10.89
4/23/2023 12:00:00 PM 10.64 51.152 0.057 7.13 7.11 10.92
4/23/2023 12:15:00 PM 10.6 51.08 0.057 7.13 7.31 10.96
4/23/2023 12:30:00 PM 10.59 51.062 0.057 7.14 6.91 10.97
4/23/2023 12:45:00 PM 10.53 50.954 0.057 7.13 6.91 10.94
4/23/2023 1:00:00 PM 10.48 50.864 0.057 7.13 6.93 10.95
4/23/2023 1:15:00 PM 10.42 50.756 0.057 7.12 7 10.95
4/23/2023 1:30:00 PM 10.46 50.828 0.057 7.14 7.11 11
4/23/2023 1:45:00 PM 10.74 51.332 0.057 7.16 6.97 11.06
4/23/2023 2:00:00 PM 10.83 51.494 0.057 7.17 6.93 11.03
4/23/2023 2:15:00 PM 10.83 51.494 0.058 7.17 7.06 11.01
4/23/2023 2:30:00 PM 10.84 51.512 0.057 7.17 6.89 10.98
4/23/2023 2:45:00 PM 10.76 51.368 0.057 7.17 7.08 10.94
4/23/2023 3:00:00 PM 10.7 51.26 0.057 7.17 7.07 10.95
4/23/2023 3:15:00 PM 10.64 51.152 0.057 7.16 7.12 10.97
4/23/2023 3:30:00 PM 10.6 51.08 0.057 7.16 7.08 10.98
4/23/2023 3:45:00 PM 10.58 51.044 0.057 7.17 7.02 10.98
4/23/2023 4:00:00 PM 10.55 50.99 0.057 7.16 7.19 10.97
4/23/2023 4:15:00 PM 10.5 50.9 0.057 7.15 7.28 10.96
4/23/2023 4:30:00 PM 10.45 50.81 0.057 7.14 7.88 10.94
4/23/2023 4:45:00 PM 10.39 50.702 0.057 7.15 7.61 10.93
4/23/2023 5:00:00 PM 10.35 50.63 0.057 7.14 7.17 10.92
4/23/2023 5:15:00 PM 10.33 50.594 0.057 7.13 7.26 10.94
4/23/2023 5:30:00 PM 10.28 50.504 0.057 7.13 7.3 10.93
4/23/2023 5:45:00 PM 10.2 50.36 0.057 7.11 7.42 10.9
4/23/2023 6:00:00 PM 10.13 50.234 0.057 7.09 7.35 10.83
4/23/2023 6:15:00 PM 10.05 50.09 0.057 7.07 7.23 10.77
4/23/2023 6:30:00 PM 9.96 49.928 0.057 7.05 7.33 10.73
4/23/2023 6:45:00 PM 9.88 49.784 0.057 7.03 7.33 10.69
4/23/2023 7:00:00 PM 9.8 49.64 0.057 7.01 7.34 10.67
4/23/2023 7:15:00 PM 9.72 49.496 0.057 7 7.37 10.65
4/23/2023 7:30:00 PM 9.65 49.37 0.058 6.97 7.42 10.64
4/23/2023 7:45:00 PM 9.57 49.226 0.058 6.98 7.21 10.63
4/23/2023 8:00:00 PM 9.49 49.082 0.058 6.97 7.36 10.63
4/23/2023 8:15:00 PM 9.41 48.938 0.058 6.96 7.68 10.65
4/23/2023 8:30:00 PM 9.32 48.776 0.058 6.96 7.61 10.65
4/23/2023 8:45:00 PM 9.24 48.632 0.058 6.96 7.61 10.66
4/23/2023 9:00:00 PM 9.17 48.506 0.058 6.95 7.73 10.68
4/23/2023 9:15:00 PM 9.1 48.38 0.058 6.97 7.76 10.7
4/23/2023 9:30:00 PM 9.03 48.254 0.058 6.96 7.67 10.71
4/23/2023 9:45:00 PM 8.96 48.128 0.058 6.96 7.75 10.73
4/23/2023 10:00:00 PM 8.88 47.984 0.058 6.95 7.54 10.75
4/23/2023 10:15:00 PM 8.82 47.876 0.058 6.94 7.66 10.76
4/23/2023 10:30:00 PM 8.74 47.732 0.058 6.95 7.62 10.79
4/23/2023 10:45:00 PM 8.68 47.624 0.058 6.95 7.79 10.8
4/23/2023 11:00:00 PM 8.61 47.498 0.058 6.95 7.58 10.83
4/23/2023 11:15:00 PM 8.55 47.39 0.058 6.95 7.61 10.85
4/23/2023 11:30:00 PM 8.49 47.282 0.058 6.95 7.76 10.87
4/23/2023 11:45:00 PM 8.42 47.156 0.058 6.95 7.91 10.89
4/24/2023 12:00:00 AM 8.34 47.012 0.058 6.95 8.19 10.91
4/24/2023 12:15:00 AM 8.27 46.886 0.058 6.95 8.08 10.93
4/24/2023 12:30:00 AM 8.2 46.76 0.058 6.94 8.36 10.95
4/24/2023 12:45:00 AM 8.14 46.652 0.058 6.95 8.02 10.97
4/24/2023 1:00:00 AM 8.08 46.544 0.058 6.94 7.69 10.99
4/24/2023 1:15:00 AM 8.03 46.454 0.059 6.94 7.82 11.01
4/24/2023 1:30:00 AM 7.96 46.328 0.059 6.94 7.67 11.03
4/24/2023 1:45:00 AM 7.91 46.238 0.058 6.93 8.29 11.05
4/24/2023 2:00:00 AM 7.86 46.148 0.059 6.94 8.14 11.06
4/24/2023 2:15:00 AM 7.79 46.022 0.059 6.89 8.05 11.09
4/24/2023 2:30:00 AM 7.73 45.914 0.059 6.89 8.24 11.1
4/24/2023 2:45:00 AM 7.68 45.824 0.059 6.88 7.95 11.11
4/24/2023 3:00:00 AM 7.62 45.716 0.059 6.88 8.08 11.13
4/24/2023 3:15:00 AM 7.57 45.626 0.059 6.88 7.84 11.15
4/24/2023 3:30:00 AM 7.51 45.518 0.059 6.88 7.99 11.16
4/24/2023 3:45:00 AM 7.45 45.41 0.059 6.88 8.05 11.18
4/24/2023 4:00:00 AM 7.39 45.302 0.059 6.88 7.91 11.19
4/24/2023 4:15:00 AM 7.34 45.212 0.059 6.89 8.09 11.22
4/24/2023 4:30:00 AM 7.29 45.122 0.059 6.88 7.95 11.23
4/24/2023 4:45:00 AM 7.24 45.032 0.059 6.9 8.08 11.25
4/24/2023 5:00:00 AM 7.19 44.942 0.059 6.9 7.74 11.27
4/24/2023 5:15:00 AM 7.15 44.87 0.059 6.91 7.93 11.28
4/24/2023 5:30:00 AM 7.1 44.78 0.059 6.92 8.01 11.31
4/24/2023 5:45:00 AM 7.06 44.708 0.059 6.92 7.91 11.35
4/24/2023 6:00:00 AM 7.02 44.636 0.059 6.92 7.87 11.4
4/24/2023 6:15:00 AM 7 44.6 0.059 6.94 7.84 11.47
4/24/2023 6:30:00 AM 6.99 44.582 0.059 6.94 7.83 11.53
4/24/2023 6:45:00 AM 7 44.6 0.059 6.96 7.82 11.6
4/24/2023 7:00:00 AM 7.01 44.618 0.059 6.99 8.05 11.68
4/24/2023 7:15:00 AM 7.05 44.69 0.059 7 7.95 11.73
4/24/2023 7:30:00 AM 7.09 44.762 0.058 7.02 8.03 11.78
4/24/2023 7:45:00 AM 7.14 44.852 0.058 7.05 7.97 11.85
4/24/2023 8:00:00 AM 7.21 44.978 0.058 7.05 7.97 11.86
4/24/2023 8:15:00 AM 7.28 45.104 0.058 7.07 7.84 11.92
4/24/2023 8:30:00 AM 7.37 45.266 0.058 7.11 7.6 11.88
4/24/2023 8:45:00 AM 7.48 45.464 0.058 7.12 7.73 11.95
4/24/2023 9:00:00 AM 7.55 45.59 0.058 7.12 7.79 11.89
4/24/2023 9:15:00 AM 7.62 45.716 0.058 7.13 8.01 11.92
4/24/2023 9:30:00 AM 7.65 45.77 0.058 7.13 7.95 11.92
4/24/2023 9:45:00 AM 7.7 45.86 0.058 7.14 8.28 11.88
4/24/2023 10:00:00 AM 7.77 45.986 0.058 7.16 8.08 11.93
4/24/2023 10:15:00 AM 7.92 46.256 0.058 7.19 8.19 12.06
4/24/2023 10:30:00 AM 7.92 46.256 0.058 7.15 8.03 11.82
4/24/2023 10:45:00 AM 7.95 46.31 0.057 7.17 7.87 11.85
4/24/2023 11:00:00 AM 8.08 46.544 0.057 7.18 7.91 11.83
4/24/2023 11:15:00 AM 8.23 46.814 0.057 7.18 7.97 11.81
4/24/2023 11:30:00 AM 8.36 47.048 0.057 7.19 8.05 11.84
4/24/2023 11:45:00 AM 8.78 47.804 0.057 7.22 7.89 11.9
4/24/2023 12:00:00 PM 9.06 48.308 0.057 7.21 8.06 11.78
4/24/2023 12:15:00 PM 9.08 48.344 0.057 7.21 7.96 11.72
4/24/2023 12:30:00 PM 9.22 48.596 0.057 7.21 8.55 11.65
4/24/2023 12:45:00 PM 9.29 48.722 0.057 7.21 8.41 11.55
4/24/2023 1:00:00 PM 9.32 48.776 0.057 7.21 8.27 11.55
4/24/2023 1:15:00 PM 9.76 49.568 0.057 7.24 8.27 11.56
4/24/2023 1:30:00 PM 10.06 50.108 0.057 7.22 8.13 11.44
4/24/2023 1:45:00 PM 10.21 50.378 0.057 7.23 7.83 11.42
4/24/2023 2:00:00 PM 10.12 50.216 0.057 7.22 7.92 11.29
4/24/2023 2:15:00 PM 10.07 50.126 0.057 7.24 8.05 11.25
4/24/2023 2:30:00 PM 10.22 50.396 0.057 7.24 7.86 11.26
4/24/2023 2:45:00 PM 10.3 50.54 0.056 7.23 8.19 11.24
4/24/2023 3:00:00 PM 10.19 50.342 0.056 7.22 8.11 11.18
4/24/2023 3:15:00 PM 10.23 50.414 0.056 7.22 8.08 11.21
4/24/2023 3:30:00 PM 10.47 50.846 0.056 7.22 8.11 11.22
4/24/2023 3:45:00 PM 10.51 50.918 0.056 7.23 8 11.17
4/24/2023 4:00:00 PM 10.37 50.666 0.057 7.21 8.19 11.08
4/24/2023 4:15:00 PM 10.26 50.468 0.057 7.2 8.29 11.01
4/24/2023 4:30:00 PM 10.2 50.36 0.057 7.2 8.39 11.01
4/24/2023 4:45:00 PM 10.16 50.288 0.056 7.18 8.09 11.03
4/24/2023 5:00:00 PM 10.09 50.162 0.056 7.18 8.24 11.03
4/24/2023 5:15:00 PM 10.05 50.09 0.056 7.18 8.17 11.05
4/24/2023 5:30:00 PM 10.02 50.036 0.056 7.17 8.22 11.04
4/24/2023 5:45:00 PM 9.94 49.892 0.056 7.16 8.25 11.01
4/24/2023 6:00:00 PM 9.87 49.766 0.057 7.16 8.49 10.98
4/24/2023 6:15:00 PM 9.78 49.604 0.057 7.14 8.41 10.95
4/24/2023 6:30:00 PM 9.7 49.46 0.057 7.12 8.29 10.91
4/24/2023 6:45:00 PM 9.63 49.334 0.057 7.11 8.3 10.86
4/24/2023 7:00:00 PM 9.57 49.226 0.057 7.08 8.31 10.81
4/24/2023 7:15:00 PM 9.51 49.118 0.057 7.06 8.4 10.77
4/24/2023 7:30:00 PM 9.44 48.992 0.057 7.06 8.46 10.73
4/24/2023 7:45:00 PM 9.38 48.884 0.057 7.04 8.21 10.72
4/24/2023 8:00:00 PM 9.31 48.758 0.057 7.03 8.53 10.71
4/24/2023 8:15:00 PM 9.25 48.65 0.057 7.02 8.37 10.71
4/24/2023 8:30:00 PM 9.18 48.524 0.057 7.01 8.81 10.72
4/24/2023 8:45:00 PM 9.11 48.398 0.057 7.01 8.85 10.72
4/24/2023 9:00:00 PM 9.02 48.236 0.057 7.01 9.05 10.74
4/24/2023 9:15:00 PM 8.92 48.056 0.057 7 8.87 10.75
4/24/2023 9:30:00 PM 8.82 47.876 0.057 6.99 9.35 10.76
4/24/2023 9:45:00 PM 8.72 47.696 0.057 6.99 8.8 10.79
4/24/2023 10:00:00 PM 8.62 47.516 0.057 6.98 9.11 10.81
4/24/2023 10:15:00 PM 8.52 47.336 0.057 6.98 8.82 10.83
4/24/2023 10:30:00 PM 8.41 47.138 0.058 6.98 9.03 10.87
4/24/2023 10:45:00 PM 8.31 46.958 0.057 6.97 9.06 10.9
4/24/2023 11:00:00 PM 8.2 46.76 0.058 6.97 8.95 10.93
4/24/2023 11:15:00 PM 8.09 46.562 0.058 6.97 8.8 10.96
4/24/2023 11:30:00 PM 7.98 46.364 0.058 6.96 9.03 10.99
4/24/2023 11:45:00 PM 7.87 46.166 0.058 6.95 9.1 11.02
4/25/2023 12:00:00 AM 7.76 45.968 0.058 6.95 8.94 11.05
4/25/2023 12:15:00 AM 7.65 45.77 0.058 6.95 9.07 11.09
4/25/2023 12:30:00 AM 7.55 45.59 0.058 6.95 9.32 11.12
4/25/2023 12:45:00 AM 7.44 45.392 0.058 6.95 9.27 11.16
4/25/2023 1:00:00 AM 7.34 45.212 0.058 6.95 9.37 11.2
4/25/2023 1:15:00 AM 7.24 45.032 0.058 6.94 9.18 11.23
4/25/2023 1:30:00 AM 7.13 44.834 0.058 6.95 9.4 11.26
4/25/2023 1:45:00 AM 7.03 44.654 0.058 6.95 9.12 11.3
4/25/2023 2:00:00 AM 6.94 44.492 0.058 6.94 9.1 11.33
4/25/2023 2:15:00 AM 6.86 44.348 0.058 6.95 9.17 11.36
4/25/2023 2:30:00 AM 6.8 44.24 0.058 6.94 9.06 11.39
4/25/2023 2:45:00 AM 6.75 44.15 0.058 6.93 9.24 11.41
4/25/2023 3:00:00 AM 6.7 44.06 0.058 6.94 9.12 11.44
4/25/2023 3:15:00 AM 6.64 43.952 0.058 6.94 9.18 11.46
4/25/2023 3:30:00 AM 6.59 43.862 0.058 6.93 9.19 11.49
4/25/2023 3:45:00 AM 6.53 43.754 0.058 6.95 9.34 11.5
4/25/2023 4:00:00 AM 6.48 43.664 0.058 6.94 9.38 11.53
4/25/2023 4:15:00 AM 6.42 43.556 0.058 6.95 9.17 11.55
4/25/2023 4:30:00 AM 6.37 43.466 0.058 6.94 9.32 11.57
4/25/2023 4:45:00 AM 6.32 43.376 0.058 6.95 9.29 11.59
4/25/2023 5:00:00 AM 6.26 43.268 0.058 6.94 9.48 11.62
4/25/2023 5:15:00 AM 6.21 43.178 0.058 6.95 9.13 11.63
4/25/2023 5:30:00 AM 6.16 43.088 0.058 6.95 9.24 11.65
4/25/2023 5:45:00 AM 6.11 42.998 0.058 6.95 8.95 11.69
4/25/2023 6:00:00 AM 6.07 42.926 0.058 6.96 8.96 11.74
4/25/2023 6:15:00 AM 6.03 42.854 0.059 6.96 9.27 11.8
4/25/2023 6:30:00 AM 6.01 42.818 0.058 6.98 9.12 11.86
4/25/2023 6:45:00 AM 5.99 42.782 0.058 6.98 9.19 11.93
4/25/2023 7:00:00 AM 5.99 42.782 0.058 6.98 9.06 12.01
4/25/2023 7:15:00 AM 6.01 42.818 0.058 6.96 9.14 12.11
4/25/2023 7:30:00 AM 6.06 42.908 0.058 6.99 9.38 12.2
4/25/2023 7:45:00 AM 6.1 42.98 0.058 7.03 9.19 12.23
4/25/2023 8:00:00 AM 6.15 43.07 0.058 7.1 9.32 12.33
4/25/2023 8:15:00 AM 6.39 43.502 0.058 7.16 9.85 12.43
4/25/2023 8:30:00 AM 6.62 43.916 0.058 7.17 9.23 12.44
4/25/2023 8:45:00 AM 6.81 44.258 0.058 7.21 9.1 12.47
4/25/2023 9:00:00 AM 6.98 44.564 0.058 7.2 9.64 12.5
4/25/2023 9:15:00 AM 7.19 44.942 0.058 7.2 9.79 12.49
4/25/2023 9:30:00 AM 7.45 45.41 0.058 7.19 9.59 12.43
4/25/2023 9:45:00 AM 7.69 45.842 0.057 7.2 9.39 12.28
4/25/2023 10:00:00 AM 7.9 46.22 0.058 7.19 9.35 12.1
4/25/2023 10:15:00 AM 7.82 46.076 0.058 7.16 9.41 12.05
4/25/2023 10:30:00 AM 8.01 46.418 0.057 7.18 9.47 12.2
4/25/2023 10:45:00 AM 7.92 46.256 0.057 7.14 9.22 11.98
4/25/2023 11:00:00 AM 7.99 46.382 0.057 7.15 9.38 12.01
4/25/2023 11:15:00 AM 8.06 46.508 0.057 7.16 9.29 11.95
4/25/2023 11:30:00 AM 8.13 46.634 0.057 7.16 9.41 11.94
4/25/2023 11:45:00 AM 8.26 46.868 0.057 7.17 9.07 11.88
4/25/2023 12:00:00 PM 8.59 47.462 0.057 7.18 9.1 11.87
4/25/2023 12:15:00 PM 9.06 48.308 0.057 7.21 9.33 11.89
4/25/2023 12:30:00 PM 9.47 49.046 0.057 7.21 10.25 11.79
4/25/2023 12:45:00 PM 9.44 48.992 0.057 7.2 9.29 11.66
4/25/2023 1:00:00 PM 9.41 48.938 0.057 7.2 9.48 11.64
4/25/2023 1:15:00 PM 9.45 49.01 0.057 7.2 9.27 11.61
4/25/2023 1:30:00 PM 9.8 49.64 0.057 7.22 9.66 11.64
4/25/2023 1:45:00 PM 9.9 49.82 0.057 7.21 9.63 11.52
4/25/2023 2:00:00 PM 9.92 49.856 0.057 7.2 9.44 11.49
4/25/2023 2:15:00 PM 10.21 50.378 0.057 7.23 9.54 11.47
4/25/2023 2:30:00 PM 10.68 51.224 0.057 7.23 10.48 11.36
4/25/2023 2:45:00 PM 10.92 51.656 0.057 7.23 10.08 11.28
4/25/2023 3:00:00 PM 10.82 51.476 0.057 7.22 10.34 11.21
4/25/2023 3:15:00 PM 10.82 51.476 0.056 7.21 10.25 11.16
4/25/2023 3:30:00 PM 10.87 51.566 0.057 7.22 10.05 11.11
4/25/2023 3:45:00 PM 10.78 51.404 0.056 7.22 9.74 11.08
4/25/2023 4:00:00 PM 10.79 51.422 0.056 7.22 9.8 11.07
4/25/2023 4:15:00 PM 10.75 51.35 0.056 7.22 9.65 11.06
4/25/2023 4:30:00 PM 10.67 51.206 0.056 7.21 9.93 11.03
4/25/2023 4:45:00 PM 10.59 51.062 0.056 7.21 10 11.02
4/25/2023 5:00:00 PM 10.55 50.99 0.056 7.21 9.63 11.01
4/25/2023 5:15:00 PM 10.5 50.9 0.056 7.19 9.5 10.99
4/25/2023 5:30:00 PM 10.43 50.774 0.056 7.18 9.62 10.96
4/25/2023 5:45:00 PM 10.36 50.648 0.056 7.17 9.65 10.93
4/25/2023 6:00:00 PM 10.3 50.54 0.056 7.17 9.87 10.91
4/25/2023 6:15:00 PM 10.23 50.414 0.057 7.16 9.76 10.87
4/25/2023 6:30:00 PM 10.17 50.306 0.057 7.15 9.84 10.83
4/25/2023 6:45:00 PM 10.09 50.162 0.057 7.13 9.86 10.77
4/25/2023 7:00:00 PM 10.01 50.018 0.057 7.11 9.55 10.73
4/25/2023 7:15:00 PM 9.93 49.874 0.057 7.09 9.85 10.68
4/25/2023 7:30:00 PM 9.87 49.766 0.057 7.07 10.1 10.64
4/25/2023 7:45:00 PM 9.8 49.64 0.057 7.05 9.96 10.62
4/25/2023 8:00:00 PM 9.73 49.514 0.057 7.03 10.18 10.6
4/25/2023 8:15:00 PM 9.65 49.37 0.057 7.02 11.05 10.59
4/25/2023 8:30:00 PM 9.58 49.244 0.057 7 9.86 10.59
4/25/2023 8:45:00 PM 9.49 49.082 0.057 7 9.61 10.59
4/25/2023 9:00:00 PM 9.41 48.938 0.057 6.99 9.43 10.61
4/25/2023 9:15:00 PM 9.33 48.794 0.057 6.99 9.35 10.62
4/25/2023 9:30:00 PM 9.26 48.668 0.058 6.98 9.49 10.64
4/25/2023 9:45:00 PM 9.18 48.524 0.057 6.97 10 10.66
4/25/2023 10:00:00 PM 9.11 48.398 0.058 6.96 9.41 10.68
4/25/2023 10:15:00 PM 9.04 48.272 0.058 6.94 9.4 10.69
4/25/2023 10:30:00 PM 8.97 48.146 0.058 6.95 9.76 10.72
4/25/2023 10:45:00 PM 8.88 47.984 0.058 6.94 9.33 10.74
4/25/2023 11:00:00 PM 8.8 47.84 0.058 6.94 9.11 10.76
4/25/2023 11:15:00 PM 8.72 47.696 0.058 6.92 9.11 10.78
4/25/2023 11:30:00 PM 8.63 47.534 0.058 6.92 9.43 10.8
4/25/2023 11:45:00 PM 8.54 47.372 0.058 6.92 9.25 10.83
4/26/2023 12:00:00 AM 8.44 47.192 0.058 6.91 9.31 10.86
4/26/2023 12:15:00 AM 8.33 46.994 0.058 6.91 9.44 10.88
4/26/2023 12:30:00 AM 8.23 46.814 0.058 6.91 9.29 10.91
4/26/2023 12:45:00 AM 8.13 46.634 0.058 6.91 9.18 10.94
4/26/2023 1:00:00 AM 8.02 46.436 0.058 6.9 9.52 10.97
4/26/2023 1:15:00 AM 7.92 46.256 0.058 6.9 9.53 11
4/26/2023 1:30:00 AM 7.81 46.058 0.058 6.91 9.24 11.03
4/26/2023 1:45:00 AM 7.71 45.878 0.058 6.94 9.42 11.07
4/26/2023 2:00:00 AM 7.6 45.68 0.058 6.94 9.01 11.1
4/26/2023 2:15:00 AM 7.53 45.554 0.058 6.92 9.22 11.12
4/26/2023 2:30:00 AM 7.45 45.41 0.058 6.92 9.15 11.16
4/26/2023 2:45:00 AM 7.35 45.23 0.059 6.93 9.31 11.19
4/26/2023 3:00:00 AM 7.28 45.104 0.059 6.93 9.34 11.22
4/26/2023 3:15:00 AM 7.18 44.924 0.06 6.93 9.53 11.25
4/26/2023 3:30:00 AM 7.09 44.762 0.059 6.93 9.07 11.27
4/26/2023 3:45:00 AM 6.99 44.582 0.059 6.94 9.31 11.3
4/26/2023 4:00:00 AM 6.89 44.402 0.06 6.94 9.35 11.34
4/26/2023 4:15:00 AM 6.8 44.24 0.059 6.94 9.57 11.36
4/26/2023 4:30:00 AM 6.71 44.078 0.06 6.94 9.29 11.39
4/26/2023 4:45:00 AM 6.63 43.934 0.06 6.95 9.45 11.42
4/26/2023 5:00:00 AM 6.58 43.844 0.059 6.95 9.29 11.45
4/26/2023 5:15:00 AM 6.51 43.718 0.059 6.95 9.07 11.48
4/26/2023 5:30:00 AM 6.45 43.61 0.059 6.94 9.12 11.52
4/26/2023 5:45:00 AM 6.4 43.52 0.059 6.95 9.34 11.57
4/26/2023 6:00:00 AM 6.36 43.448 0.059 6.95 9.57 11.63
4/26/2023 6:15:00 AM 6.31 43.358 0.059 6.95 9.17 11.7
4/26/2023 6:30:00 AM 6.32 43.376 0.058 6.96 9.46 11.8
4/26/2023 6:45:00 AM 6.31 43.358 0.058 6.97 9.28 11.84
4/26/2023 7:00:00 AM 6.3 43.34 0.058 6.99 9.32 11.9
4/26/2023 7:15:00 AM 6.32 43.376 0.058 7.01 9.78 11.99
4/26/2023 7:30:00 AM 6.33 43.394 0.058 7.02 9.54 12
4/26/2023 7:45:00 AM 6.33 43.394 0.058 7.02 10.03 12.02
4/26/2023 8:00:00 AM 6.34 43.412 0.058 7.04 9.38 12.11
4/26/2023 8:15:00 AM 6.4 43.52 0.058 7.07 9.45 12.14
4/26/2023 8:30:00 AM 6.56 43.808 0.058 7.14 9.47 12.28
4/26/2023 8:45:00 AM 6.66 43.988 0.058 7.15 9.18 12.38
4/26/2023 9:00:00 AM 6.74 44.132 0.058 7.11 9.51 12.17
4/26/2023 9:15:00 AM 6.81 44.258 0.058 7.11 9.36 12.22
4/26/2023 9:30:00 AM 6.92 44.456 0.058 7.12 9.61 12.24
4/26/2023 9:45:00 AM 7.04 44.672 0.058 7.15 9.47 12.27
4/26/2023 10:00:00 AM 7.17 44.906 0.058 7.16 9.53 12.26
4/26/2023 10:15:00 AM 7.32 45.176 0.058 7.19 9.54 12.34
4/26/2023 10:30:00 AM 7.55 45.59 0.058 7.2 9.62 12.27
4/26/2023 10:45:00 AM 7.59 45.662 0.057 7.18 9.47 12.06
4/26/2023 11:00:00 AM 7.66 45.788 0.057 7.18 9.43 12.13
4/26/2023 11:15:00 AM 8.08 46.544 0.057 7.21 9.59 12.27
4/26/2023 11:30:00 AM 8.42 47.156 0.057 7.22 9.5 12.09
4/26/2023 11:45:00 AM 8.63 47.534 0.057 7.22 9.55 12.09
4/26/2023 12:00:00 PM 8.73 47.714 0.057 7.21 9.53 11.93
4/26/2023 12:15:00 PM 8.91 48.038 0.057 7.2 9.81 11.75
4/26/2023 12:30:00 PM 9.08 48.344 0.057 7.21 10.14 11.79
4/26/2023 12:45:00 PM 9.59 49.262 0.057 7.23 9.84 11.79
4/26/2023 1:00:00 PM 9.64 49.352 0.057 7.22 9.89 11.59
4/26/2023 1:15:00 PM 9.95 49.91 0.057 7.23 10.45 11.58
4/26/2023 1:30:00 PM 10.14 50.252 0.057 7.23 10.34 11.56
4/26/2023 1:45:00 PM 10.1 50.18 0.057 7.22 10.11 11.49
4/26/2023 2:00:00 PM 10.47 50.846 0.057 7.24 10.28 11.45
4/26/2023 2:15:00 PM 10.7 51.26 0.057 7.24 10.33 11.4
4/26/2023 2:30:00 PM 11.02 51.836 0.057 7.23 10.14 11.32
4/26/2023 2:45:00 PM 10.86 51.548 0.056 7.22 10.34 11.16
4/26/2023 3:00:00 PM 11.03 51.854 0.057 7.23 10.11 11.17
4/26/2023 3:15:00 PM 11.09 51.962 0.057 7.22 10.21 11.09
4/26/2023 3:30:00 PM 11.18 52.124 0.057 7.23 10.34 11.11
4/26/2023 3:45:00 PM 11.19 52.142 0.057 7.23 10.21 11.04
4/26/2023 4:00:00 PM 11.16 52.088 0.057 7.23 10.16 11.03
4/26/2023 4:15:00 PM 11.1 51.98 0.056 7.23 10.25 10.99
4/26/2023 4:30:00 PM 11.09 51.962 0.056 7.23 10.13 10.96
4/26/2023 4:45:00 PM 11.06 51.908 0.056 7.23 10.42 10.93
4/26/2023 5:00:00 PM 11.11 51.998 0.056 7.23 9.81 10.92
4/26/2023 5:15:00 PM 11.1 51.98 0.056 7.23 9.65 10.88
4/26/2023 5:30:00 PM 11.06 51.908 0.056 7.22 9.83 10.83
4/26/2023 5:45:00 PM 11.05 51.89 0.057 7.21 9.89 10.78
4/26/2023 6:00:00 PM 10.99 51.782 0.057 7.2 10.16 10.73
4/26/2023 6:15:00 PM 10.92 51.656 0.056 7.18 10.29 10.69
4/26/2023 6:30:00 PM 10.83 51.494 0.057 7.16 10.09 10.64
4/26/2023 6:45:00 PM 10.73 51.314 0.057 7.14 9.8 10.59
4/26/2023 7:00:00 PM 10.64 51.152 0.057 7.12 10.09 10.53
4/26/2023 7:15:00 PM 10.54 50.972 0.057 7.09 10.17 10.48
4/26/2023 7:30:00 PM 10.44 50.792 0.057 7.07 10.53 10.44
4/26/2023 7:45:00 PM 10.33 50.594 0.057 7.05 10.54 10.42
4/26/2023 8:00:00 PM 10.22 50.396 0.057 7.03 10.02 10.42
4/26/2023 8:15:00 PM 10.12 50.216 0.057 7.03 10.63 10.42
4/26/2023 8:30:00 PM 10.01 50.018 0.057 7.02 10.57 10.42
4/26/2023 8:45:00 PM 9.91 49.838 0.057 7.02 10.97 10.43
4/26/2023 9:00:00 PM 9.81 49.658 0.057 7 10.63 10.45
4/26/2023 9:15:00 PM 9.7 49.46 0.058 7.01 11.01 10.47
4/26/2023 9:30:00 PM 9.58 49.244 0.058 7 10.96 10.49
4/26/2023 9:45:00 PM 9.47 49.046 0.057 7 10.73 10.52
4/26/2023 10:00:00 PM 9.35 48.83 0.057 7 11.21 10.55
4/26/2023 10:15:00 PM 9.23 48.614 0.058 7 10.87 10.58
4/26/2023 10:30:00 PM 9.11 48.398 0.058 6.99 10.82 10.61
4/26/2023 10:45:00 PM 8.99 48.182 0.058 7 10.75 10.64
4/26/2023 11:00:00 PM 8.88 47.984 0.058 6.99 10.62 10.67
4/26/2023 11:15:00 PM 8.76 47.768 0.058 6.99 10.94 10.71
4/26/2023 11:30:00 PM 8.65 47.57 0.058 6.99 11.04 10.74
4/26/2023 11:45:00 PM 8.54 47.372 0.058 6.99 11.04 10.78
4/27/2023 12:00:00 AM 8.43 47.174 0.058 6.98 11.06 10.81
4/27/2023 12:15:00 AM 8.33 46.994 0.058 6.96 11.47 10.85
4/27/2023 12:30:00 AM 8.24 46.832 0.058 6.97 11.07 10.88
4/27/2023 12:45:00 AM 8.16 46.688 0.058 6.98 11.29 10.91
4/27/2023 1:00:00 AM 8.09 46.562 0.058 6.98 11.29 10.94
4/27/2023 1:15:00 AM 8.01 46.418 0.058 6.97 11.32 10.97
4/27/2023 1:30:00 AM 7.93 46.274 0.058 6.97 11.04 11.01
4/27/2023 1:45:00 AM 7.82 46.076 0.058 6.97 11.36 11.03
4/27/2023 2:00:00 AM 7.72 45.896 0.058 6.96 11.17 11.07
4/27/2023 2:15:00 AM 7.6 45.68 0.059 6.96 11.27 11.09
4/27/2023 2:30:00 AM 7.5 45.5 0.058 6.95 11.31 11.13
4/27/2023 2:45:00 AM 7.38 45.284 0.059 6.96 11.17 11.16
4/27/2023 3:00:00 AM 7.28 45.104 0.059 6.95 12.02 11.19
4/27/2023 3:15:00 AM 7.17 44.906 0.059 6.96 11.76 11.23
4/27/2023 3:30:00 AM 7.07 44.726 0.059 6.95 11.91 11.26
4/27/2023 3:45:00 AM 6.96 44.528 0.059 6.95 11.53 11.29
4/27/2023 4:00:00 AM 6.85 44.33 0.059 6.95 12 11.33
4/27/2023 4:15:00 AM 6.76 44.168 0.059 6.94 11.34 11.36
4/27/2023 4:30:00 AM 6.65 43.97 0.059 6.94 11.16 11.39
4/27/2023 4:45:00 AM 6.56 43.808 0.059 6.94 11.19 11.44
4/27/2023 5:00:00 AM 6.46 43.628 0.059 6.93 11.43 11.48
4/27/2023 5:15:00 AM 6.37 43.466 0.059 6.94 11.88 11.52
4/27/2023 5:30:00 AM 6.29 43.322 0.059 6.94 11.43 11.57
4/27/2023 5:45:00 AM 6.22 43.196 0.059 6.95 11.61 11.64
4/27/2023 6:00:00 AM 6.15 43.07 0.059 6.95 11.16 11.71
4/27/2023 6:15:00 AM 6.09 42.962 0.059 6.98 11.52 11.8
4/27/2023 6:30:00 AM 6.07 42.926 0.059 6.99 11.35 11.9
4/27/2023 6:45:00 AM 6.07 42.926 0.059 7 11.44 12.01
4/27/2023 7:00:00 AM 6.07 42.926 0.059 7.05 11.2 12.09
4/27/2023 7:15:00 AM 6.1 42.98 0.058 7.12 11.44 12.17
4/27/2023 7:30:00 AM 6.16 43.088 0.058 7.16 12.34 12.26
4/27/2023 7:45:00 AM 6.27 43.286 0.058 7.16 11.75 12.31
4/27/2023 8:00:00 AM 6.39 43.502 0.058 7.18 11.16 12.4
4/27/2023 8:15:00 AM 6.54 43.772 0.058 7.22 11.02 12.45
4/27/2023 8:30:00 AM 6.73 44.114 0.058 7.25 11.1 12.51
4/27/2023 8:45:00 AM 6.95 44.51 0.058 7.28 11.47 12.54
4/27/2023 9:00:00 AM 7.21 44.978 0.058 7.3 11.69 12.6
4/27/2023 9:15:00 AM 7.42 45.356 0.058 7.26 11.53 12.47
4/27/2023 9:30:00 AM 7.69 45.842 0.058 7.23 11.45 12.3
4/27/2023 9:45:00 AM 7.81 46.058 0.058 7.21 11.76 12.34
4/27/2023 10:00:00 AM 8.07 46.526 0.058 7.22 11.9 12.47
4/27/2023 10:15:00 AM 8.4 47.12 0.058 7.2 11.92 12.43
4/27/2023 10:30:00 AM 8.82 47.876 0.058 7.21 11.78 12.29
4/27/2023 10:45:00 AM 9.4 48.92 0.058 7.2 11.95 12.14
4/27/2023 11:00:00 AM 9.9 49.82 0.058 7.2 11.63 12.01
4/27/2023 11:15:00 AM 10.33 50.594 0.058 7.19 12.25 11.83
4/27/2023 11:30:00 AM 10.75 51.35 0.057 7.2 12.29 11.7
4/27/2023 11:45:00 AM 11.15 52.07 0.057 7.19 13.09 11.55
4/27/2023 12:00:00 PM 11.54 52.772 0.057 7.19 13.35 11.41
4/27/2023 12:15:00 PM 11.91 53.438 0.057 7.19 12.36 11.31
4/27/2023 12:30:00 PM 12.28 54.104 0.057 7.2 13.14 11.2
4/27/2023 12:45:00 PM 12.63 54.734 0.057 7.21 13.31 11.09
4/27/2023 1:00:00 PM 12.95 55.31 0.057 7.21 13.92 10.99
4/27/2023 1:15:00 PM 13.24 55.832 0.057 7.22 14.77 10.91
4/27/2023 1:30:00 PM 13.5 56.3 0.057 7.22 15.71 10.82
4/27/2023 1:45:00 PM 13.71 56.678 0.057 7.22 16.62 10.74
4/27/2023 2:00:00 PM 13.89 57.002 0.057 7.21 16.06 10.68
4/27/2023 2:15:00 PM 14.05 57.29 0.057 7.21 14.64 10.61
4/27/2023 2:30:00 PM 14.2 57.56 0.057 7.21 15.08 10.54
4/27/2023 2:45:00 PM 14.25 57.65 0.057 7.2 14.02 10.49
4/27/2023 3:00:00 PM 14.21 57.578 0.057 7.22 13.74 10.45
4/27/2023 3:15:00 PM 14.25 57.65 0.057 7.23 13.51 10.41
4/27/2023 3:30:00 PM 14.26 57.668 0.057 7.23 13.78 10.38
4/27/2023 3:45:00 PM 14.19 57.542 0.057 7.23 13.87 10.36
4/27/2023 4:00:00 PM 14.13 57.434 0.057 7.23 13.87 10.33
4/27/2023 4:15:00 PM 14.09 57.362 0.057 7.24 13.32 10.31
4/27/2023 4:30:00 PM 14.05 57.29 0.057 7.23 13.62 10.27
4/27/2023 4:45:00 PM 14.01 57.218 0.057 7.23 13.41 10.24
4/27/2023 5:00:00 PM 13.94 57.092 0.056 7.22 12.98 10.21
4/27/2023 5:15:00 PM 13.88 56.984 0.057 7.21 12.79 10.17
4/27/2023 5:30:00 PM 13.83 56.894 0.057 7.19 12.44 10.12
4/27/2023 5:45:00 PM 13.76 56.768 0.057 7.18 12.39 10.07
4/27/2023 6:00:00 PM 13.7 56.66 0.057 7.16 12.57 10.01
4/27/2023 6:15:00 PM 13.61 56.498 0.057 7.14 12.81 9.96
4/27/2023 6:30:00 PM 13.53 56.354 0.057 7.12 12.83 9.89
4/27/2023 6:45:00 PM 13.45 56.21 0.057 7.09 13.01 9.83
4/27/2023 7:00:00 PM 13.35 56.03 0.057 7.07 12.77 9.76
4/27/2023 7:15:00 PM 13.24 55.832 0.057 7.05 12.4 9.71
4/27/2023 7:30:00 PM 13.14 55.652 0.057 7.03 12.8 9.67
4/27/2023 7:45:00 PM 13.04 55.472 0.057 7.02 13.95 9.64
4/27/2023 8:00:00 PM 12.94 55.292 0.058 7.01 9.65 9.63
4/27/2023 8:15:00 PM 12.84 55.112 0.058 7 9.73 9.63
4/27/2023 8:30:00 PM 12.73 54.914 0.058 6.99 9.83 9.62
4/27/2023 8:45:00 PM 12.63 54.734 0.058 6.98 9.74 9.66
4/27/2023 9:00:00 PM 12.53 54.554 0.058 6.98 9.72 9.66
4/27/2023 9:15:00 PM 12.41 54.338 0.058 6.97 9.74 9.68
4/27/2023 9:30:00 PM 12.29 54.122 0.058 6.97 9.73 9.7
4/27/2023 9:45:00 PM 12.16 53.888 0.058 6.96 9.64 9.73
4/27/2023 10:00:00 PM 12.04 53.672 0.058 6.94 21.98 9.77
4/27/2023 10:15:00 PM 11.92 53.456 0.058 6.95 7.71 9.78
4/27/2023 10:30:00 PM 11.79 53.222 0.058 6.94 7.53 9.83
4/27/2023 10:45:00 PM 11.67 53.006 0.058 6.95 7.55 9.85
4/27/2023 11:00:00 PM 11.56 52.808 0.058 6.94 7.62 9.88
4/27/2023 11:15:00 PM 11.44 52.592 0.059 6.95 7.68 9.91
4/27/2023 11:30:00 PM 11.33 52.394 0.058 6.94 7.64 9.95
4/27/2023 11:45:00 PM 11.21 52.178 0.059 6.95 7.07 9.98
4/28/2023 12:00:00 AM 11.09 51.962 0.059 6.95 6.97 10.01
4/28/2023 12:15:00 AM 10.97 51.746 0.059 6.93 6.99 10.05
4/28/2023 12:30:00 AM 10.85 51.53 0.059 6.93 7.07 10.08
4/28/2023 12:45:00 AM 10.73 51.314 0.059 6.93 6.94 10.11
4/28/2023 1:00:00 AM 10.63 51.134 0.059 6.93 7.03 10.15
4/28/2023 1:15:00 AM 10.55 50.99 0.059 6.91 6.97 10.17
4/28/2023 1:30:00 AM 10.48 50.864 0.059 6.91 7.05 10.21
4/28/2023 1:45:00 AM 10.41 50.738 0.059 6.91 7.08 10.23
4/28/2023 2:00:00 AM 10.34 50.612 0.059 6.92 7 10.26
4/28/2023 2:15:00 AM 10.28 50.504 0.059 6.93 7.21 10.28
4/28/2023 2:30:00 AM 10.22 50.396 0.059 6.93 7.12 10.3
4/28/2023 2:45:00 AM 10.15 50.27 0.059 6.93 7.13 10.33
4/28/2023 3:00:00 AM 10.09 50.162 0.059 6.94 7.07 10.35
4/28/2023 3:15:00 AM 10.03 50.054 0.059 6.94 7.21 10.37
4/28/2023 3:30:00 AM 9.97 49.946 0.059 6.95 7.11 10.39
4/28/2023 3:45:00 AM 9.92 49.856 0.059 6.94 7.07 10.41
4/28/2023 4:00:00 AM 9.87 49.766 0.059 6.94 7.16 10.42
4/28/2023 4:15:00 AM 9.83 49.694 0.059 6.94 7.53 10.44
4/28/2023 4:30:00 AM 9.8 49.64 0.059 6.95 7.16 10.46
4/28/2023 4:45:00 AM 9.77 49.586 0.059 6.95 7.1 10.47
4/28/2023 5:00:00 AM 9.75 49.55 0.059 6.97 7.38 10.49
4/28/2023 5:15:00 AM 9.72 49.496 0.059 6.97 7.08 10.49
4/28/2023 5:30:00 AM 9.69 49.442 0.059 6.97 7.01 10.51
4/28/2023 5:45:00 AM 9.67 49.406 0.059 6.98 7.08 10.53
4/28/2023 6:00:00 AM 9.65 49.37 0.059 6.99 7.13 10.57
4/28/2023 6:15:00 AM 9.64 49.352 0.059 7.01 7.08 10.61
4/28/2023 6:30:00 AM 9.64 49.352 0.059 7.02 7.08 10.65
4/28/2023 6:45:00 AM 9.63 49.334 0.059 7.03 7.09 10.7
4/28/2023 7:00:00 AM 9.64 49.352 0.059 7.03 7.16 10.75
4/28/2023 7:15:00 AM 9.65 49.37 0.059 7.05 7.06 10.81
4/28/2023 7:30:00 AM 9.66 49.388 0.059 7.07 7.08 10.84
4/28/2023 7:45:00 AM 9.67 49.406 0.059 7.07 7.13 10.89
4/28/2023 8:00:00 AM 9.68 49.424 0.059 7.09 7.03 10.93
4/28/2023 8:15:00 AM 9.7 49.46 0.059 7.09 7 10.97
4/28/2023 8:30:00 AM 9.71 49.478 0.059 7.11 7.13 11
4/28/2023 8:45:00 AM 9.72 49.496 0.059 7.11 7.1 11.03
4/28/2023 9:00:00 AM 9.74 49.532 0.059 7.12 7.15 11.02
4/28/2023 9:15:00 AM 9.74 49.532 0.058 7.11 7.04 11.04
4/28/2023 9:30:00 AM 9.75 49.55 0.058 7.13 7.01 11.05
4/28/2023 9:45:00 AM 9.76 49.568 0.058 7.14 7.11 11.05
4/28/2023 10:00:00 AM 9.77 49.586 0.058 7.14 7.38 11.09
4/28/2023 10:15:00 AM 9.79 49.622 0.058 7.15 7.06 11.12
4/28/2023 10:30:00 AM 9.83 49.694 0.058 7.16 6.97 11.15
4/28/2023 10:45:00 AM 9.87 49.766 0.058 7.17 7.01 11.15
4/28/2023 11:00:00 AM 9.91 49.838 0.058 7.18 7.27 11.16
4/28/2023 11:15:00 AM 9.92 49.856 0.058 7.19 7.15 11.13
4/28/2023 11:30:00 AM 9.94 49.892 0.058 7.18 7.23 11.14
4/28/2023 11:45:00 AM 9.98 49.964 0.058 7.18 7.64 11.16
4/28/2023 12:00:00 PM 10.01 50.018 0.057 7.19 7.33 11.16
4/28/2023 12:15:00 PM 10.05 50.09 0.057 7.2 7.43 11.17
4/28/2023 12:30:00 PM 10.1 50.18 0.057 7.21 7.29 11.2
4/28/2023 12:45:00 PM 10.14 50.252 0.057 7.21 7.39 11.16
4/28/2023 1:00:00 PM 10.16 50.288 0.057 7.22 7.32 11.15
4/28/2023 1:15:00 PM 10.18 50.324 0.057 7.23 7.38 11.16
4/28/2023 1:30:00 PM 10.22 50.396 0.057 7.23 7.41 11.17
4/28/2023 1:45:00 PM 10.29 50.522 0.057 7.24 7.85 11.19
4/28/2023 2:00:00 PM 10.44 50.792 0.057 7.25 7.53 11.23
4/28/2023 2:15:00 PM 10.53 50.954 0.057 7.25 7.4 11.2
4/28/2023 2:30:00 PM 10.6 51.08 0.057 7.25 7.38 11.15
4/28/2023 2:45:00 PM 10.61 51.098 0.057 7.25 7.89 11.09
4/28/2023 3:00:00 PM 10.59 51.062 0.057 7.24 7.37 11.02
4/28/2023 3:15:00 PM 10.57 51.026 0.057 7.23 7.59 11
4/28/2023 3:30:00 PM 10.52 50.936 0.066 7.21 8.27 10.93
4/28/2023 3:45:00 PM 10.48 50.864 0.064 7.19 7.75 10.88
4/28/2023 4:00:00 PM 10.45 50.81 0.059 7.17 7.65 10.86
4/28/2023 4:15:00 PM 10.43 50.774 0.059 7.16 7.68 10.82
4/28/2023 4:30:00 PM 10.4 50.72 0.06 7.15 7.69 10.77
4/28/2023 4:45:00 PM 10.35 50.63 0.06 7.13 7.67 10.72
4/28/2023 5:00:00 PM 10.31 50.558 0.061 7.12 7.89 10.7
4/28/2023 5:15:00 PM 10.27 50.486 0.062 7.11 8.61 10.69
4/28/2023 5:30:00 PM 10.23 50.414 0.059 7.1 8 10.66
4/28/2023 5:45:00 PM 10.19 50.342 0.058 7.08 7.98 10.64
4/28/2023 6:00:00 PM 10.15 50.27 0.059 7.07 8 10.6
4/28/2023 6:15:00 PM 10.11 50.198 0.058 7.05 7.99 10.57
4/28/2023 6:30:00 PM 10.07 50.126 0.057 7.04 8.1 10.55
4/28/2023 6:45:00 PM 10.02 50.036 0.057 7.02 8.13 10.52
4/28/2023 7:00:00 PM 9.98 49.964 0.057 7 8.34 10.51
4/28/2023 7:15:00 PM 9.93 49.874 0.057 7 8.13 10.51
4/28/2023 7:30:00 PM 9.88 49.784 0.057 6.98 8.38 10.5
4/28/2023 7:45:00 PM 9.83 49.694 0.057 6.98 8.58 10.5
4/28/2023 8:00:00 PM 9.77 49.586 0.057 6.96 8.59 10.5
4/28/2023 8:15:00 PM 9.72 49.496 0.057 6.97 8.67 10.51
4/28/2023 8:30:00 PM 9.66 49.388 0.057 6.96 8.87 10.52
4/28/2023 8:45:00 PM 9.62 49.316 0.058 6.97 8.9 10.53
4/28/2023 9:00:00 PM 9.57 49.226 0.058 6.97 8.96 10.54
4/28/2023 9:15:00 PM 9.53 49.154 0.058 6.95 9 10.55
4/28/2023 9:30:00 PM 9.5 49.1 0.058 6.96 9.17 10.56
4/28/2023 9:45:00 PM 9.46 49.028 0.058 6.95 9.13 10.57
4/28/2023 10:00:00 PM 9.42 48.956 0.058 6.95 8.96 10.58
4/28/2023 10:15:00 PM 9.39 48.902 0.058 6.95 8.96 10.59
4/28/2023 10:30:00 PM 9.35 48.83 0.058 6.95 8.88 10.6
4/28/2023 10:45:00 PM 9.31 48.758 0.058 6.95 8.88 10.62
4/28/2023 11:00:00 PM 9.27 48.686 0.058 6.95 8.79 10.63
4/28/2023 11:15:00 PM 9.23 48.614 0.058 6.94 9.04 10.64
4/28/2023 11:30:00 PM 9.19 48.542 0.058 6.95 9.03 10.66
4/28/2023 11:45:00 PM 9.15 48.47 0.058 6.93 8.98 10.67
4/29/2023 12:00:00 AM 9.11 48.398 0.058 6.93 9.39 10.68
4/29/2023 12:15:00 AM 9.07 48.326 0.058 6.93 9.21 10.68
4/29/2023 12:30:00 AM 9.03 48.254 0.058 6.94 9.62 10.7
4/29/2023 12:45:00 AM 8.99 48.182 0.058 6.93 9.32 10.71
4/29/2023 1:00:00 AM 8.96 48.128 0.058 6.93 9.26 10.72
4/29/2023 1:15:00 AM 8.92 48.056 0.058 6.94 9.29 10.73
4/29/2023 1:30:00 AM 8.89 48.002 0.058 6.93 9.83 10.74
4/29/2023 1:45:00 AM 8.86 47.948 0.058 6.92 9.52 10.75
4/29/2023 2:00:00 AM 8.83 47.894 0.058 6.93 9.28 10.76
4/29/2023 2:15:00 AM 8.8 47.84 0.058 6.93 9.52 10.76
4/29/2023 2:30:00 AM 8.77 47.786 0.058 6.93 9.62 10.78
4/29/2023 2:45:00 AM 8.74 47.732 0.058 6.94 9.36 10.79
4/29/2023 3:00:00 AM 8.71 47.678 0.058 6.94 9.14 10.8
4/29/2023 3:15:00 AM 8.68 47.624 0.058 6.93 9.34 10.8
4/29/2023 3:30:00 AM 8.66 47.588 0.058 6.93 9.22 10.81
4/29/2023 3:45:00 AM 8.63 47.534 0.059 6.94 9.29 10.81
4/29/2023 4:00:00 AM 8.61 47.498 0.058 6.94 9.25 10.82
4/29/2023 4:15:00 AM 8.58 47.444 0.059 6.94 9.54 10.82
4/29/2023 4:30:00 AM 8.56 47.408 0.059 6.94 9.64 10.83
4/29/2023 4:45:00 AM 8.54 47.372 0.059 6.94 9.3 10.84
4/29/2023 5:00:00 AM 8.52 47.336 0.059 6.94 9.46 10.85
4/29/2023 5:15:00 AM 8.51 47.318 0.059 6.94 9.42 10.85
4/29/2023 5:30:00 AM 8.49 47.282 0.059 6.94 9.34 10.86
4/29/2023 5:45:00 AM 8.47 47.246 0.059 6.95 9.53 10.87
4/29/2023 6:00:00 AM 8.46 47.228 0.059 6.94 9.51 10.88
4/29/2023 6:15:00 AM 8.45 47.21 0.061 6.95 9.52 10.9
4/29/2023 6:30:00 AM 8.45 47.21 0.061 6.96 9.59 10.94
4/29/2023 6:45:00 AM 8.45 47.21 0.06 6.96 9.45 10.96
4/29/2023 7:00:00 AM 8.45 47.21 0.06 6.97 9.46 10.98
4/29/2023 7:15:00 AM 8.45 47.21 0.059 6.98 9.46 11.01
4/29/2023 7:30:00 AM 8.46 47.228 0.059 6.98 9.51 11.05
4/29/2023 7:45:00 AM 8.47 47.246 0.059 7 9.33 11.08
4/29/2023 8:00:00 AM 8.49 47.282 0.059 7.01 9.2 11.11
4/29/2023 8:15:00 AM 8.51 47.318 0.059 7.01 9.14 11.15
4/29/2023 8:30:00 AM 8.54 47.372 0.058 7.02 9.21 11.18
4/29/2023 8:45:00 AM 8.57 47.426 0.059 7.05 9.3 11.21
4/29/2023 9:00:00 AM 8.6 47.48 0.058 7.06 9.15 11.22
4/29/2023 9:15:00 AM 8.62 47.516 0.058 7.05 9.13 11.24
4/29/2023 9:30:00 AM 8.67 47.606 0.058 7.07 9.13 11.27
4/29/2023 9:45:00 AM 8.73 47.714 0.058 7.08 9.24 11.3
4/29/2023 10:00:00 AM 8.81 47.858 0.058 7.1 9.33 11.35
4/29/2023 10:15:00 AM 8.87 47.966 0.058 7.12 9.05 11.34
4/29/2023 10:30:00 AM 8.92 48.056 0.058 7.12 9.07 11.35
4/29/2023 10:45:00 AM 8.99 48.182 0.058 7.13 9.06 11.35
4/29/2023 11:00:00 AM 9.05 48.29 0.058 7.14 8.82 11.35
4/29/2023 11:15:00 AM 9.12 48.416 0.058 7.14 8.94 11.34
4/29/2023 11:30:00 AM 9.19 48.542 0.057 7.16 8.83 11.33
4/29/2023 11:45:00 AM 9.25 48.65 0.057 7.17 8.79 11.32
4/29/2023 12:00:00 PM 9.34 48.812 0.057 7.18 8.94 11.34
4/29/2023 12:15:00 PM 9.44 48.992 0.057 7.18 9.03 11.31
4/29/2023 12:30:00 PM 9.53 49.154 0.057 7.19 9.05 11.33
4/29/2023 12:45:00 PM 9.65 49.37 0.057 7.2 9.01 11.29
4/29/2023 1:00:00 PM 9.75 49.55 0.057 7.21 8.87 11.23
4/29/2023 1:15:00 PM 9.82 49.676 0.057 7.21 8.9 11.22
4/29/2023 1:30:00 PM 9.89 49.802 0.057 7.21 9.01 11.18
4/29/2023 1:45:00 PM 9.95 49.91 0.057 7.21 8.83 11.16
4/29/2023 2:00:00 PM 10.06 50.108 0.057 7.22 8.6 11.14
4/29/2023 2:15:00 PM 10.17 50.306 0.057 7.22 8.81 11.13
4/29/2023 2:30:00 PM 10.26 50.468 0.057 7.23 9.1 11.09
4/29/2023 2:45:00 PM 10.36 50.648 0.057 7.23 8.7 11.08
4/29/2023 3:00:00 PM 10.39 50.702 0.057 7.23 9.2 11.01
4/29/2023 3:15:00 PM 10.41 50.738 0.057 7.23 9 10.99
4/29/2023 3:30:00 PM 10.46 50.828 0.057 7.22 8.92 10.96
4/29/2023 3:45:00 PM 10.5 50.9 0.057 7.21 8.7 10.93
4/29/2023 4:00:00 PM 10.5 50.9 0.057 7.2 8.81 10.88
4/29/2023 4:15:00 PM 10.51 50.918 0.057 7.2 9.12 10.83
4/29/2023 4:30:00 PM 10.5 50.9 0.058 7.18 9.11 10.78
4/29/2023 4:45:00 PM 10.48 50.864 0.058 7.16 8.84 10.72
4/29/2023 5:00:00 PM 10.45 50.81 0.057 7.14 9.13 10.68
4/29/2023 5:15:00 PM 10.44 50.792 0.058 7.14 8.84 10.67
4/29/2023 5:30:00 PM 10.42 50.756 0.058 7.13 8.76 10.64
4/29/2023 5:45:00 PM 10.42 50.756 0.058 7.12 9.11 10.66
4/29/2023 6:00:00 PM 10.42 50.756 0.058 7.12 8.91 10.66
4/29/2023 6:15:00 PM 10.39 50.702 0.058 7.12 8.82 10.62
4/29/2023 6:30:00 PM 10.36 50.648 0.058 7.1 8.86 10.57
4/29/2023 6:45:00 PM 10.32 50.576 0.058 7.08 8.74 10.52
4/29/2023 7:00:00 PM 10.28 50.504 0.058 7.07 9.63 10.48
4/29/2023 7:15:00 PM 10.24 50.432 0.058 7.04 9.06 10.44
4/29/2023 7:30:00 PM 10.21 50.378 0.058 7.04 8.99 10.42
4/29/2023 7:45:00 PM 10.17 50.306 0.059 7.02 9.07 10.41
4/29/2023 8:00:00 PM 10.14 50.252 0.059 6.99 9.43 10.4
4/29/2023 8:15:00 PM 10.11 50.198 0.059 7 9.13 10.38
4/29/2023 8:30:00 PM 10.08 50.144 0.058 7 9.73 10.38
4/29/2023 8:45:00 PM 10.05 50.09 0.059 6.99 10.06 10.38
4/29/2023 9:00:00 PM 10.02 50.036 0.059 6.99 9.82 10.38
4/29/2023 9:15:00 PM 9.99 49.982 0.059 6.99 9.71 10.39
4/29/2023 9:30:00 PM 9.96 49.928 0.059 6.98 9.45 10.39
4/29/2023 9:45:00 PM 9.93 49.874 0.059 6.98 9.65 10.4
4/29/2023 10:00:00 PM 9.9 49.82 0.059 6.97 9.44 10.4
4/29/2023 10:15:00 PM 9.88 49.784 0.059 6.97 9.26 10.41
4/29/2023 10:30:00 PM 9.85 49.73 0.059 6.97 9.28 10.41
4/29/2023 10:45:00 PM 9.83 49.694 0.059 6.97 9.79 10.41
4/29/2023 11:00:00 PM 9.8 49.64 0.059 6.97 9.89 10.42
4/29/2023 11:15:00 PM 9.78 49.604 0.059 6.96 9.85 10.43
4/29/2023 11:30:00 PM 9.75 49.55 0.059 6.97 9.62 10.43
4/29/2023 11:45:00 PM 9.73 49.514 0.059 6.97 9.64 10.44
4/30/2023 12:00:00 AM 9.71 49.478 0.059 6.95 9.9 10.44
4/30/2023 12:15:00 AM 9.68 49.424 0.059 6.97 9.71 10.44
4/30/2023 12:30:00 AM 9.66 49.388 0.059 6.96 9.78 10.45
4/30/2023 12:45:00 AM 9.64 49.352 0.059 6.95 9.84 10.45
4/30/2023 1:00:00 AM 9.61 49.298 0.059 6.95 8.99 10.45
4/30/2023 1:15:00 AM 9.6 49.28 0.059 6.95 9.24 10.46
4/30/2023 1:30:00 AM 9.58 49.244 0.059 6.95 9.42 10.46
4/30/2023 1:45:00 AM 9.56 49.208 0.059 6.95 9.32 10.46
4/30/2023 2:00:00 AM 9.55 49.19 0.059 6.96 9.73 10.47
4/30/2023 2:15:00 AM 9.53 49.154 0.059 6.95 9.39 10.47
4/30/2023 2:30:00 AM 9.51 49.118 0.059 6.95 9.17 10.47
4/30/2023 2:45:00 AM 9.5 49.1 0.059 6.95 9.31 10.48
4/30/2023 3:00:00 AM 9.48 49.064 0.059 6.95 9.52 10.48
4/30/2023 3:15:00 AM 9.47 49.046 0.059 6.95 9.24 10.48
4/30/2023 3:30:00 AM 9.45 49.01 0.059 6.96 9.23 10.49
4/30/2023 3:45:00 AM 9.44 48.992 0.059 6.96 9.23 10.48
4/30/2023 4:00:00 AM 9.43 48.974 0.059 6.96 9.31 10.49
4/30/2023 4:15:00 AM 9.41 48.938 0.06 6.96 9.26 10.49
4/30/2023 4:30:00 AM 9.4 48.92 0.059 6.95 9.01 10.5
4/30/2023 4:45:00 AM 9.39 48.902 0.06 6.95 9.39 10.5
4/30/2023 5:00:00 AM 9.38 48.884 0.06 6.95 9.3 10.5
4/30/2023 5:15:00 AM 9.37 48.866 0.06 6.95 9.21 10.5
4/30/2023 5:30:00 AM 9.37 48.866 0.063 6.95 9.36 10.5
4/30/2023 5:45:00 AM 9.36 48.848 0.065 6.94 9.42 10.51
4/30/2023 6:00:00 AM 9.35 48.83 0.064 6.96 9.47 10.52
4/30/2023 6:15:00 AM 9.35 48.83 0.062 6.97 9.41 10.54
4/30/2023 6:30:00 AM 9.35 48.83 0.062 6.98 9.19 10.58
4/30/2023 6:45:00 AM 9.35 48.83 0.063 6.97 9.67 10.59
4/30/2023 7:00:00 AM 9.36 48.848 0.065 6.98 9.52 10.62
4/30/2023 7:15:00 AM 9.37 48.866 0.062 6.98 9.47 10.66
4/30/2023 7:30:00 AM 9.4 48.92 0.062 6.99 9.72 10.7
4/30/2023 7:45:00 AM 9.44 48.992 0.06 7.01 9.44 10.78
4/30/2023 8:00:00 AM 9.48 49.064 0.06 7.02 9.76 10.83
4/30/2023 8:15:00 AM 9.52 49.136 0.06 7.04 9.34 10.86
4/30/2023 8:30:00 AM 9.55 49.19 0.06 7.07 9.33 10.87
4/30/2023 8:45:00 AM 9.59 49.262 0.06 7.06 9.32 10.88
4/30/2023 9:00:00 AM 9.62 49.316 0.06 7.08 9.53 10.88
4/30/2023 9:15:00 AM 9.65 49.37 0.06 7.09 9.46 10.9
4/30/2023 9:30:00 AM 9.7 49.46 0.06 7.09 9.44 10.91
4/30/2023 9:45:00 AM 9.74 49.532 0.06 7.1 9.6 10.91
4/30/2023 10:00:00 AM 9.78 49.604 0.06 7.11 9.78 10.91
4/30/2023 10:15:00 AM 9.82 49.676 0.059 7.12 9.39 10.9
4/30/2023 10:30:00 AM 9.87 49.766 0.059 7.11 9.45 10.9
4/30/2023 10:45:00 AM 9.91 49.838 0.059 7.13 9.51 10.91
4/30/2023 11:00:00 AM 9.95 49.91 0.059 7.14 9.38 10.92
4/30/2023 11:15:00 AM 10.02 50.036 0.06 7.16 9.6 10.93
4/30/2023 11:30:00 AM 10.08 50.144 0.06 7.16 9.94 10.93
4/30/2023 11:45:00 AM 10.13 50.234 0.06 7.17 9.71 10.92
4/30/2023 12:00:00 PM 10.21 50.378 0.06 7.17 9.38 10.93
4/30/2023 12:15:00 PM 10.3 50.54 0.06 7.18 9.54 10.92
4/30/2023 12:30:00 PM 10.37 50.666 0.06 7.19 9.35 10.9
4/30/2023 12:45:00 PM 10.41 50.738 0.059 7.2 9.37 10.87
4/30/2023 1:00:00 PM 10.44 50.792 0.059 7.21 9.73 10.84
4/30/2023 1:15:00 PM 10.48 50.864 0.059 7.21 9.71 10.81
4/30/2023 1:30:00 PM 10.51 50.918 0.059 7.2 9.64 10.78
4/30/2023 1:45:00 PM 10.53 50.954 0.059 7.19 9.78 10.75
4/30/2023 2:00:00 PM 10.57 51.026 0.061 7.19 10.19 10.73
4/30/2023 2:15:00 PM 10.64 51.152 0.062 7.19 10.32 10.77
4/30/2023 2:30:00 PM 10.72 51.296 0.06 7.2 9.96 10.76
4/30/2023 2:45:00 PM 10.76 51.368 0.059 7.2 10.09 10.73
4/30/2023 3:00:00 PM 10.8 51.44 0.059 7.2 10.41 10.69
4/30/2023 3:15:00 PM 10.81 51.458 0.059 7.22 10.15 10.66
4/30/2023 3:30:00 PM 10.82 51.476 0.059 7.19 10.05 10.61
4/30/2023 3:45:00 PM 10.83 51.494 0.059 7.18 10.11 10.58
4/30/2023 4:00:00 PM 10.84 51.512 0.06 7.17 10.11 10.56
4/30/2023 4:15:00 PM 10.84 51.512 0.06 7.16 9.84 10.52
4/30/2023 4:30:00 PM 10.83 51.494 0.061 7.16 10.03 10.48
4/30/2023 4:45:00 PM 10.82 51.476 0.061 7.14 10.03 10.42
4/30/2023 5:00:00 PM 10.81 51.458 0.065 7.12 11.21 10.36
4/30/2023 5:15:00 PM 10.8 51.44 0.063 7.11 12.42 10.3
4/30/2023 5:30:00 PM 10.76 51.368 0.06 7.08 11 10.29
4/30/2023 5:45:00 PM 10.73 51.314 0.06 7.08 10.72 10.28
4/30/2023 6:00:00 PM 10.67 51.206 0.06 7.06 10.75 10.27
4/30/2023 6:15:00 PM 10.61 51.098 0.06 7.06 11.06 10.24
4/30/2023 6:30:00 PM 10.55 50.99 0.06 7.05 11.2 10.21
4/30/2023 6:45:00 PM 10.49 50.882 0.06 7.03 11.23 10.21
4/30/2023 7:00:00 PM 10.42 50.756 0.06 7.02 11.59 10.22
4/30/2023 7:15:00 PM 10.35 50.63 0.06 7.01 12.13 10.22
4/30/2023 7:30:00 PM 10.28 50.504 0.06 7 12.8 10.21
4/30/2023 7:45:00 PM 10.21 50.378 0.06 6.99 12.71 10.22
4/30/2023 8:00:00 PM 10.14 50.252 0.061 6.99 13.22 10.22
4/30/2023 8:15:00 PM 10.08 50.144 0.061 6.97 13.48 10.24
4/30/2023 8:30:00 PM 10.01 50.018 0.061 6.99 14.85 10.26
4/30/2023 8:45:00 PM 9.94 49.892 0.061 6.99 14.99 10.27
4/30/2023 9:00:00 PM 9.87 49.766 0.062 6.98 14.43 10.29
4/30/2023 9:15:00 PM 9.8 49.64 0.062 7.01 14.15 10.31
4/30/2023 9:30:00 PM 9.74 49.532 0.062 6.97 13.74 10.33
4/30/2023 9:45:00 PM 9.68 49.424 0.062 6.98 13.23 10.34
4/30/2023 10:00:00 PM 9.61 49.298 0.062 6.97 13.2 10.36
4/30/2023 10:15:00 PM 9.56 49.208 0.062 6.97 13.31 10.37
4/30/2023 10:30:00 PM 9.5 49.1 0.062 6.95 13.44 10.39
4/30/2023 10:45:00 PM 9.44 48.992 0.062 6.97 13.63 10.41
4/30/2023 11:00:00 PM 9.38 48.884 0.062 6.95 14.08 10.43
4/30/2023 11:15:00 PM 9.32 48.776 0.062 6.95 14.29 10.44
4/30/2023 11:30:00 PM 9.27 48.686 0.062 6.95 11.43 10.46
4/30/2023 11:45:00 PM 9.21 48.578 0.062 6.95 11.51 10.48
5/1/2023 12:00:00 AM 9.15 48.47 0.062 6.93 11.14 10.49
5/1/2023 12:15:00 AM 9.09 48.362 0.062 6.93 11.34 10.51
5/1/2023 12:30:00 AM 9.04 48.272 0.062 6.92 11.04 10.52
5/1/2023 12:45:00 AM 8.98 48.164 0.062 6.94 10.66 10.54
5/1/2023 1:00:00 AM 8.92 48.056 0.063 7.08 10.82 10.56
5/1/2023 1:15:00 AM 8.86 47.948 0.062 7.06 10.77 10.57
5/1/2023 1:30:00 AM 8.8 47.84 0.063 7.05 10.84 10.58
5/1/2023 1:45:00 AM 8.75 47.75 0.063 7.04 10.7 10.6
5/1/2023 2:00:00 AM 8.7 47.66 0.063 7.03 10.78 10.61
5/1/2023 2:15:00 AM 8.65 47.57 0.063 7.02 11.06 10.62
5/1/2023 2:30:00 AM 8.6 47.48 0.063 7.02 10.77 10.64
5/1/2023 2:45:00 AM 8.54 47.372 0.063 7.02 10.83 10.65
5/1/2023 3:00:00 AM 8.49 47.282 0.063 7.01 10.9 10.66
5/1/2023 3:15:00 AM 8.44 47.192 0.063 7.02 10.86 10.68
5/1/2023 3:30:00 AM 8.39 47.102 0.063 7.02 10.56 10.69
5/1/2023 3:45:00 AM 8.34 47.012 0.063 7.01 10.42 10.71
5/1/2023 4:00:00 AM 8.3 46.94 0.063 7.01 10.38 10.72
5/1/2023 4:15:00 AM 8.26 46.868 0.063 7.01 10.11 10.74
5/1/2023 4:30:00 AM 8.23 46.814 0.063 7.03 10.16 10.75
5/1/2023 4:45:00 AM 8.19 46.742 0.063 7.02 10.08 10.76
5/1/2023 5:00:00 AM 8.15 46.67 0.063 7.03 10.02 10.77
5/1/2023 5:15:00 AM 8.12 46.616 0.062 7.03 10.15 10.79
5/1/2023 5:30:00 AM 8.09 46.562 0.063 7.03 10 10.81
5/1/2023 5:45:00 AM 8.05 46.49 0.062 7.03 9.83 10.85
5/1/2023 6:00:00 AM 8.01 46.418 0.062 7.03 9.7 10.9
5/1/2023 6:15:00 AM 8 46.4 0.062 7.05 9.44 10.97
5/1/2023 6:30:00 AM 7.99 46.382 0.062 7.07 9.51 11
5/1/2023 6:45:00 AM 7.99 46.382 0.062 7.07 9.42 11.06
5/1/2023 7:00:00 AM 7.99 46.382 0.062 7.08 9.21 11.09
5/1/2023 7:15:00 AM 7.99 46.382 0.062 7.09 9.16 11.15
5/1/2023 7:30:00 AM 8.01 46.418 0.062 7.11 9.22 11.19
5/1/2023 7:45:00 AM 8.05 46.49 0.062 7.12 9.05 11.25
5/1/2023 8:00:00 AM 8.06 46.508 0.062 7.14 8.85 11.29
5/1/2023 8:15:00 AM 8.08 46.544 0.062 7.15 8.85 11.26
5/1/2023 8:30:00 AM 8.12 46.616 0.061 7.17 8.82 11.36
5/1/2023 8:45:00 AM 8.13 46.634 0.062 7.17 8.89 11.3
5/1/2023 9:00:00 AM 8.15 46.67 0.062 7.16 8.8 11.36
5/1/2023 9:15:00 AM 8.27 46.886 0.061 7.19 8.7 11.53
5/1/2023 9:30:00 AM 8.42 47.156 0.061 7.19 8.74 11.33
5/1/2023 9:45:00 AM 8.45 47.21 0.061 7.2 8.7 11.36
5/1/2023 10:00:00 AM 8.54 47.372 0.061 7.23 8.76 11.39
5/1/2023 10:15:00 AM 8.49 47.282 0.066 7.2 10.23 11.24
5/1/2023 10:30:00 AM 8.72 47.696 0.062 7.23 8.99 11.44
5/1/2023 10:45:00 AM 8.81 47.858 0.061 7.22 8.78 11.46
5/1/2023 11:00:00 AM 9.13 48.434 0.061 7.23 8.68 11.33
5/1/2023 11:15:00 AM 9.19 48.542 0.061 7.21 8.68 11.24
5/1/2023 11:30:00 AM 9.37 48.866 0.061 7.23 8.56 11.44
5/1/2023 11:45:00 AM 9.74 49.532 0.061 7.24 8.59 11.24
5/1/2023 12:00:00 PM 9.81 49.658 0.061 7.22 8.46 11.26
5/1/2023 12:15:00 PM 9.94 49.892 0.061 7.12 8.54 11.1
5/1/2023 12:30:00 PM 10.02 50.036 0.061 7.24 8.46 11.04
5/1/2023 12:45:00 PM 10.22 50.396 0.06 7.1 8.79 11.09
5/1/2023 1:00:00 PM 10.64 51.152 0.06 7.17 8.47 11.02
5/1/2023 1:15:00 PM 10.79 51.422 0.06 7.21 8.35 10.96
5/1/2023 1:30:00 PM 10.64 51.152 0.06 7.19 8.66 10.85
5/1/2023 1:45:00 PM 10.41 50.738 0.06 7.19 8.59 10.8
5/1/2023 2:00:00 PM 10.29 50.522 0.061 7.17 8.72 10.82
5/1/2023 2:15:00 PM 10.19 50.342 0.061 7.18 8.72 10.75
5/1/2023 2:30:00 PM 10.24 50.432 0.062 7.17 9.23 10.81
5/1/2023 2:45:00 PM 10.4 50.72 0.06 7.17 8.84 10.84
5/1/2023 3:00:00 PM 10.55 50.99 0.06 7.19 8.78 10.82
5/1/2023 3:15:00 PM 10.54 50.972 0.06 7.17 8.9 10.76
5/1/2023 3:30:00 PM 10.53 50.954 0.06 7.17 8.97 10.78
5/1/2023 3:45:00 PM 10.54 50.972 0.06 7.17 9.15 10.79
5/1/2023 4:00:00 PM 10.57 51.026 0.06 7.17 9.29 10.76
5/1/2023 4:15:00 PM 10.56 51.008 0.059 7.18 10.24 10.73
5/1/2023 4:30:00 PM 10.5 50.9 0.059 7.18 9.8 10.7
5/1/2023 4:45:00 PM 10.47 50.846 0.059 7.15 9.78 10.69
5/1/2023 5:00:00 PM 10.44 50.792 0.059 7.14 9.69 10.66
5/1/2023 5:15:00 PM 10.4 50.72 0.06 7.12 9.57 10.6
5/1/2023 5:30:00 PM 10.34 50.612 0.06 7.09 9.49 10.56
5/1/2023 5:45:00 PM 10.28 50.504 0.06 7.09 9.41 10.57
5/1/2023 6:00:00 PM 10.2 50.36 0.06 7.12 9.24 10.54
5/1/2023 6:15:00 PM 10.11 50.198 0.06 7.06 9.25 10.5
5/1/2023 6:30:00 PM 10.04 50.072 0.061 7.04 9.26 10.46
5/1/2023 6:45:00 PM 9.95 49.91 0.061 7.04 9.3 10.43
5/1/2023 7:00:00 PM 9.85 49.73 0.061 7.02 9.76 10.42
5/1/2023 7:15:00 PM 9.76 49.568 0.06 7.01 9.99 10.42
5/1/2023 7:30:00 PM 9.67 49.406 0.06 7 10.17 10.41
5/1/2023 7:45:00 PM 9.59 49.262 0.06 6.98 10.42 10.42
5/1/2023 8:00:00 PM 9.49 49.082 0.06 6.85 11.07 10.42
5/1/2023 8:15:00 PM 9.4 48.92 0.06 6.93 11.01 10.44
5/1/2023 8:30:00 PM 9.32 48.776 0.06 6.89 11.24 10.46
5/1/2023 8:45:00 PM 9.24 48.632 0.06 6.95 11.23 10.48
5/1/2023 9:00:00 PM 9.15 48.47 0.06 6.94 11.01 10.5
5/1/2023 9:15:00 PM 9.07 48.326 0.06 6.95 10.93 10.52
5/1/2023 9:30:00 PM 8.99 48.182 0.061 6.93 10.7 10.55
5/1/2023 9:45:00 PM 8.9 48.02 0.061 6.93 10.71 10.57
5/1/2023 10:00:00 PM 8.82 47.876 0.061 6.93 10.72 10.6
5/1/2023 10:15:00 PM 8.74 47.732 0.061 6.92 10.69 10.62
5/1/2023 10:30:00 PM 8.66 47.588 0.061 6.92 10.52 10.64
5/1/2023 10:45:00 PM 8.58 47.444 0.061 6.93 11.06 10.66
5/1/2023 11:00:00 PM 8.51 47.318 0.061 6.95 11 10.68
5/1/2023 11:15:00 PM 8.44 47.192 0.061 6.93 11.07 10.7
5/1/2023 11:30:00 PM 8.38 47.084 0.061 6.88 11.13 10.72
5/1/2023 11:45:00 PM 8.31 46.958 0.061 6.88 11.02 10.74
5/2/2023 12:00:00 AM 8.25 46.85 0.062 6.86 11.36 10.76
5/2/2023 12:15:00 AM 8.17 46.706 0.061 6.88 11.47 10.79
5/2/2023 12:30:00 AM 8.11 46.598 0.061 6.87 11.67 10.8
5/2/2023 12:45:00 AM 8.04 46.472 0.06 6.87 11.21 10.82
5/2/2023 1:00:00 AM 7.97 46.346 0.06 6.87 11.43 10.84
5/2/2023 1:15:00 AM 7.9 46.22 0.061 6.86 11.34 10.86
5/2/2023 1:30:00 AM 7.84 46.112 0.061 6.86 11.25 10.88
5/2/2023 1:45:00 AM 7.79 46.022 0.061 6.87 11.45 10.9
5/2/2023 2:00:00 AM 7.73 45.914 0.061 6.86 11.56 10.91
5/2/2023 2:15:00 AM 7.69 45.842 0.061 6.87 11.47 10.93
5/2/2023 2:30:00 AM 7.65 45.77 0.061 6.87 11.47 10.94
5/2/2023 2:45:00 AM 7.6 45.68 0.061 6.9 11.5 10.95
5/2/2023 3:00:00 AM 7.55 45.59 0.061 6.9 11.75 10.97
5/2/2023 3:15:00 AM 7.5 45.5 0.061 6.89 11.82 10.98
5/2/2023 3:30:00 AM 7.46 45.428 0.061 6.92 11.52 10.99
5/2/2023 3:45:00 AM 7.42 45.356 0.06 6.9 11.4 11.01
5/2/2023 4:00:00 AM 7.38 45.284 0.061 6.9 11.54 11.02
5/2/2023 4:15:00 AM 7.33 45.194 0.06 6.91 11.36 11.04
5/2/2023 4:30:00 AM 7.28 45.104 0.06 6.91 11.49 11.05
5/2/2023 4:45:00 AM 7.25 45.05 0.06 6.92 11.46 11.06
5/2/2023 5:00:00 AM 7.21 44.978 0.06 6.89 11.32 11.08
5/2/2023 5:15:00 AM 7.17 44.906 0.06 6.9 11.51 11.09
5/2/2023 5:30:00 AM 7.15 44.87 0.06 6.9 11.49 11.12
5/2/2023 5:45:00 AM 7.12 44.816 0.06 6.91 11.38 11.16
5/2/2023 6:00:00 AM 7.11 44.798 0.06 6.92 11.26 11.22
5/2/2023 6:15:00 AM 7.09 44.762 0.06 6.93 11.2 11.26
5/2/2023 6:30:00 AM 7.08 44.744 0.06 6.94 11.17 11.31
5/2/2023 6:45:00 AM 7.07 44.726 0.06 6.96 11.21 11.35
5/2/2023 7:00:00 AM 7.1 44.78 0.06 7.02 11.07 11.42
5/2/2023 7:15:00 AM 7.12 44.816 0.059 6.97 11.03 11.44
5/2/2023 7:30:00 AM 7.13 44.834 0.059 7 10.84 11.47
5/2/2023 7:45:00 AM 7.13 44.834 0.059 6.99 10.97 11.48
5/2/2023 8:00:00 AM 7.14 44.852 0.059 7 10.8 11.51
5/2/2023 8:15:00 AM 7.16 44.888 0.059 7.01 10.72 11.53
5/2/2023 8:30:00 AM 7.19 44.942 0.059 7.01 10.78 11.56
5/2/2023 8:45:00 AM 7.26 45.068 0.059 7.02 10.7 11.58
5/2/2023 9:00:00 AM 7.33 45.194 0.059 7.05 10.57 11.62
5/2/2023 9:15:00 AM 7.38 45.284 0.059 7.03 10.77 11.63
5/2/2023 9:30:00 AM 7.41 45.338 0.059 7.04 10.49 11.58
5/2/2023 9:45:00 AM 7.47 45.446 0.059 7.05 10.49 11.58
5/2/2023 10:00:00 AM 7.5 45.5 0.059 7.06 10.56 11.6
5/2/2023 10:15:00 AM 7.57 45.626 0.059 7.06 10.6 11.6
5/2/2023 10:30:00 AM 7.66 45.788 0.058 7.08 10.45 11.57
5/2/2023 10:45:00 AM 7.74 45.932 0.058 7.09 10.55 11.59
5/2/2023 11:00:00 AM 7.8 46.04 0.058 7.08 10.53 11.56
5/2/2023 11:15:00 AM 7.94 46.292 0.058 7.1 10.5 11.62
5/2/2023 11:30:00 AM 8.11 46.598 0.058 7.1 10.58 11.56
5/2/2023 11:45:00 AM 8.23 46.814 0.058 7.11 10.61 11.57
5/2/2023 12:00:00 PM 8.29 46.922 0.058 7.1 10.54 11.47
5/2/2023 12:15:00 PM 8.35 47.03 0.058 7.11 10.42 11.46
5/2/2023 12:30:00 PM 8.41 47.138 0.058 7.11 10.49 11.45
5/2/2023 12:45:00 PM 8.49 47.282 0.058 7.12 10.53 11.45
5/2/2023 1:00:00 PM 8.6 47.48 0.058 7.12 10.58 11.46
5/2/2023 1:15:00 PM 8.74 47.732 0.057 7.12 10.55 11.33
5/2/2023 1:30:00 PM 8.71 47.678 0.058 7.11 10.46 11.28
5/2/2023 1:45:00 PM 8.77 47.786 0.058 7.11 10.53 11.32
5/2/2023 2:00:00 PM 8.85 47.93 0.058 7.11 10.56 11.32
5/2/2023 2:15:00 PM 8.9 48.02 0.057 7.13 10.57 11.29
5/2/2023 2:30:00 PM 8.98 48.164 0.057 7.18 10.55 11.28
5/2/2023 2:45:00 PM 8.97 48.146 0.057 7.08 10.51 11.17
5/2/2023 3:00:00 PM 8.97 48.146 0.058 7.08 10.52 11.21
5/2/2023 3:15:00 PM 9.06 48.308 0.057 7.2 10.7 11.2
5/2/2023 3:30:00 PM 9.13 48.434 0.057 7.2 10.64 11.17
5/2/2023 3:45:00 PM 9.09 48.362 0.057 7.16 10.65 11.13
5/2/2023 4:00:00 PM 9.07 48.326 0.057 7.14 10.9 11.1
5/2/2023 4:15:00 PM 9.01 48.218 0.059 7.14 11.34 11.06
5/2/2023 4:30:00 PM 8.98 48.164 0.058 7.08 10.98 11.05
5/2/2023 4:45:00 PM 8.97 48.146 0.057 7.05 10.98 11.05
5/2/2023 5:00:00 PM 8.95 48.11 0.057 7.13 11.03 11.04
5/2/2023 5:15:00 PM 8.9 48.02 0.057 7.11 10.94 11.02
5/2/2023 5:30:00 PM 8.84 47.912 0.057 7.05 11 10.98
5/2/2023 5:45:00 PM 8.79 47.822 0.057 7.07 11.03 10.98
5/2/2023 6:00:00 PM 8.75 47.75 0.057 7.08 10.99 10.98
5/2/2023 6:15:00 PM 8.71 47.678 0.057 7.04 10.96 10.95
5/2/2023 6:30:00 PM 8.65 47.57 0.057 6.95 10.95 10.92
5/2/2023 6:45:00 PM 8.6 47.48 0.057 7.02 11.02 10.91
5/2/2023 7:00:00 PM 8.54 47.372 0.057 6.99 11.1 10.89
5/2/2023 7:15:00 PM 8.47 47.246 0.057 6.97 11.08 10.87
5/2/2023 7:30:00 PM 8.41 47.138 0.057 6.97 11.16 10.87
5/2/2023 7:45:00 PM 8.35 47.03 0.057 6.96 11.42 10.86
5/2/2023 8:00:00 PM 8.29 46.922 0.057 6.94 11.57 10.87
5/2/2023 8:15:00 PM 8.23 46.814 0.057 6.95 11.63 10.88
5/2/2023 8:30:00 PM 8.17 46.706 0.057 7.05 11.77 10.89
5/2/2023 8:45:00 PM 8.11 46.598 0.057 7.03 12.07 10.9
5/2/2023 9:00:00 PM 8.05 46.49 0.057 6.99 11.96 10.91
5/2/2023 9:15:00 PM 7.99 46.382 0.057 6.99 12.13 10.92
5/2/2023 9:30:00 PM 7.93 46.274 0.057 7 11.98 10.94
5/2/2023 9:45:00 PM 7.88 46.184 0.057 6.99 12.09 10.96
5/2/2023 10:00:00 PM 7.83 46.094 0.057 6.98 12.13 10.97
5/2/2023 10:15:00 PM 7.78 46.004 0.057 6.98 12.15 10.99
5/2/2023 10:30:00 PM 7.73 45.914 0.057 6.98 12.16 11
5/2/2023 10:45:00 PM 7.68 45.824 0.057 6.99 11.9 11.02
5/2/2023 11:00:00 PM 7.63 45.734 0.057 6.95 12.04 11.03
5/2/2023 11:15:00 PM 7.58 45.644 0.056 6.94 12.13 11.05
5/2/2023 11:30:00 PM 7.53 45.554 0.056 6.95 12.04 11.06
5/2/2023 11:45:00 PM 7.49 45.482 0.057 6.98 12.07 11.08
5/3/2023 12:00:00 AM 7.44 45.392 0.056 6.95 12.12 11.09
5/3/2023 12:15:00 AM 7.4 45.32 0.056 6.94 12.12 11.1
5/3/2023 12:30:00 AM 7.36 45.248 0.056 6.89 11.98 11.12
5/3/2023 12:45:00 AM 7.32 45.176 0.056 6.87 12.11 11.13
5/3/2023 1:00:00 AM 7.29 45.122 0.056 6.91 12.05 11.14
5/3/2023 1:15:00 AM 7.25 45.05 0.056 6.9 12.1 11.15
5/3/2023 1:30:00 AM 7.22 44.996 0.056 6.9 12.05 11.16
5/3/2023 1:45:00 AM 7.18 44.924 0.056 6.9 12.17 11.17
5/3/2023 2:00:00 AM 7.15 44.87 0.056 6.91 12.32 11.18
5/3/2023 2:15:00 AM 7.11 44.798 0.056 6.89 12.12 11.19
5/3/2023 2:30:00 AM 7.08 44.744 0.056 6.92 12.22 11.2
5/3/2023 2:45:00 AM 7.05 44.69 0.056 6.93 12.29 11.2
5/3/2023 3:00:00 AM 7.02 44.636 0.056 6.94 12.51 11.21
5/3/2023 3:15:00 AM 6.99 44.582 0.056 6.94 12.29 11.22
5/3/2023 3:30:00 AM 6.96 44.528 0.056 6.93 12.4 11.22
5/3/2023 3:45:00 AM 6.93 44.474 0.056 6.94 12.39 11.23
5/3/2023 4:00:00 AM 6.9 44.42 0.056 6.94 12.64 11.24
5/3/2023 4:15:00 AM 6.86 44.348 0.056 6.93 12.34 11.25
5/3/2023 4:30:00 AM 6.83 44.294 0.056 6.94 12.49 11.27
5/3/2023 4:45:00 AM 6.8 44.24 0.056 6.94 12.44 11.27
5/3/2023 5:00:00 AM 6.78 44.204 0.056 6.93 12.62 11.29
5/3/2023 5:15:00 AM 6.74 44.132 0.056 6.93 12.66 11.3
5/3/2023 5:30:00 AM 6.7 44.06 0.056 6.93 12.78 11.33
5/3/2023 5:45:00 AM 6.67 44.006 0.055 6.93 12.58 11.37
5/3/2023 6:00:00 AM 6.66 43.988 0.055 6.94 12.48 11.42
5/3/2023 6:15:00 AM 6.65 43.97 0.055 6.95 12.63 11.47
5/3/2023 6:30:00 AM 6.65 43.97 0.055 6.97 12.53 11.52
5/3/2023 6:45:00 AM 6.66 43.988 0.055 6.98 12.49 11.56
5/3/2023 7:00:00 AM 6.66 43.988 0.055 6.98 12.61 11.6
5/3/2023 7:15:00 AM 6.67 44.006 0.055 6.99 12.46 11.62
5/3/2023 7:30:00 AM 6.68 44.024 0.055 7.01 12.37 11.64
5/3/2023 7:45:00 AM 6.69 44.042 0.055 7.01 12.42 11.65
5/3/2023 8:00:00 AM 6.72 44.096 0.055 7.02 12.49 11.69
5/3/2023 8:15:00 AM 6.76 44.168 0.055 7.03 12.71 11.71
5/3/2023 8:30:00 AM 6.78 44.204 0.055 7.04 12.46 11.7
5/3/2023 8:45:00 AM 6.8 44.24 0.055 7.04 12.33 11.72
5/3/2023 9:00:00 AM 6.83 44.294 0.055 7.06 12.59 11.74
5/3/2023 9:15:00 AM 6.89 44.402 0.055 7.07 12.46 11.8
5/3/2023 9:30:00 AM 6.98 44.564 0.055 7.07 12.5 11.78
5/3/2023 9:45:00 AM 7.01 44.618 0.054 7.09 12.56 11.74
5/3/2023 10:00:00 AM 7.21 44.978 0.054 7.13 12.47 12
5/3/2023 10:15:00 AM 7.36 45.248 0.054 7.12 12.49 11.96
5/3/2023 10:30:00 AM 7.62 45.716 0.054 7.14 12.45 11.79
5/3/2023 10:45:00 AM 7.67 45.806 0.054 7.11 12.46 11.82
5/3/2023 11:00:00 AM 7.78 46.004 0.054 7.11 12.35 11.7
5/3/2023 11:15:00 AM 7.84 46.112 0.054 7.12 12.61 11.63
5/3/2023 11:30:00 AM 7.96 46.328 0.054 7.12 12.64 11.57
5/3/2023 12:00:00 PM 8.44 47.192 0.054 7.15 12.65 11.73
5/3/2023 12:15:00 PM 8.75 47.75 0.054 7.15 12.69 11.57
5/3/2023 12:30:00 PM 8.85 47.93 0.053 7.17 12.79 11.64
5/3/2023 12:45:00 PM 8.95 48.11 0.053 7.12 12.85 11.37
5/3/2023 1:00:00 PM 8.98 48.164 0.053 7.13 12.77 11.41
5/3/2023 1:15:00 PM 9.1 48.38 0.053 7.14 13.04 11.37
5/3/2023 1:30:00 PM 9.28 48.704 0.053 7.14 13.08 11.28
5/3/2023 1:45:00 PM 9.38 48.884 0.053 7.15 13.1 11.3
5/3/2023 2:00:00 PM 9.48 49.064 0.053 7.14 13.16 11.25
5/3/2023 2:15:00 PM 9.61 49.298 0.053 7.15 13.43 11.21
5/3/2023 2:30:00 PM 9.76 49.568 0.053 7.15 13.24 11.17
5/3/2023 2:45:00 PM 9.88 49.784 0.053 7.17 13.32 11.14
5/3/2023 3:00:00 PM 9.9 49.82 0.053 7.15 13.45 11.08
5/3/2023 3:15:00 PM 9.86 49.748 0.053 7.13 13.64 11.04
5/3/2023 3:30:00 PM 9.86 49.748 0.053 7.14 13.55 11.02
5/3/2023 3:45:00 PM 9.77 49.586 0.053 7.13 13.65 10.95
5/3/2023 4:00:00 PM 9.7 49.46 0.053 7.12 14 10.96
5/3/2023 4:30:00 PM 9.53 49.154 0.054 7.08 14.23 10.88
5/3/2023 4:45:00 PM 9.46 49.028 0.053 7.07 14.08 10.92
5/3/2023 5:00:00 PM 9.39 48.902 0.053 7.07 14.2 10.93
5/3/2023 5:15:00 PM 9.3 48.74 0.053 7.07 14.27 10.96
5/3/2023 5:30:00 PM 9.22 48.596 0.052 7.07 14.42 10.99
5/3/2023 5:45:00 PM 9.13 48.434 0.052 7.07 14.51 10.99
5/3/2023 6:00:00 PM 9.03 48.254 0.053 7.04 14.57 10.94
5/3/2023 6:15:00 PM 8.92 48.056 0.053 7.04 14.64 10.91
5/3/2023 6:30:00 PM 8.84 47.912 0.053 7.02 14.64 10.9
5/3/2023 6:45:00 PM 8.75 47.75 0.053 7 14.82 10.91
5/3/2023 7:00:00 PM 8.65 47.57 0.053 6.99 14.73 10.91
5/3/2023 7:15:00 PM 8.56 47.408 0.053 6.99 14.81 10.91
5/3/2023 7:30:00 PM 8.48 47.264 0.053 6.97 14.87 10.91
5/3/2023 7:45:00 PM 8.4 47.12 0.053 6.97 15.17 10.92
5/3/2023 8:00:00 PM 8.33 46.994 0.053 6.96 15.22 10.93
5/3/2023 8:15:00 PM 8.27 46.886 0.053 6.95 15.12 10.94
5/3/2023 8:30:00 PM 8.2 46.76 0.053 6.94 15.48 10.95
5/3/2023 8:45:00 PM 8.14 46.652 0.053 6.96 15.64 10.97
5/3/2023 9:00:00 PM 8.08 46.544 0.053 6.95 15.83 10.98
5/3/2023 9:15:00 PM 8.03 46.454 0.053 6.94 15.95 11
5/3/2023 9:30:00 PM 7.99 46.382 0.053 6.93 15.99 11.01
5/3/2023 9:45:00 PM 7.95 46.31 0.053 6.93 16.17 11.02
5/3/2023 10:00:00 PM 7.91 46.238 0.053 6.92 16.18 11.04
5/3/2023 10:15:00 PM 7.86 46.148 0.053 6.92 16.11 11.05
5/3/2023 10:30:00 PM 7.82 46.076 0.053 6.9 16.07 11.07
5/3/2023 10:45:00 PM 7.78 46.004 0.053 6.91 15.87 11.08
5/3/2023 11:00:00 PM 7.75 45.95 0.053 6.91 15.75 11.09
5/3/2023 11:15:00 PM 7.71 45.878 0.053 6.91 15.83 11.11
5/3/2023 11:30:00 PM 7.67 45.806 0.053 6.91 15.84 11.12
5/3/2023 11:45:00 PM 7.64 45.752 0.053 6.91 15.72 11.13
5/4/2023 12:00:00 AM 7.61 45.698 0.053 6.91 15.82 11.14
5/4/2023 12:15:00 AM 7.58 45.644 0.053 6.91 15.75 11.15
5/4/2023 12:30:00 AM 7.55 45.59 0.053 6.91 15.71 11.16
5/4/2023 12:45:00 AM 7.52 45.536 0.053 6.89 15.89 11.17
5/4/2023 1:00:00 AM 7.49 45.482 0.053 6.91 15.76 11.18
5/8/2023 7:00:00 PM 14.81 58.658 0.048 7.05 31.97 9.53
5/8/2023 7:15:00 PM 14.67 58.406 0.049 7.02 31.82 9.49
5/8/2023 7:30:00 PM 14.53 58.154 0.049 7 32.65 9.45
5/8/2023 7:45:00 PM 14.38 57.884 0.049 6.97 32.44 9.44
5/8/2023 8:00:00 PM 14.23 57.614 0.049 6.95 32.85 9.43
5/8/2023 8:15:00 PM 14.08 57.344 0.049 6.93 32.89 9.44
5/8/2023 8:30:00 PM 13.92 57.056 0.049 6.76 33.33 9.45
5/8/2023 8:45:00 PM 13.77 56.786 0.049 6.88 33.35 9.47
5/8/2023 9:00:00 PM 13.63 56.534 0.049 6.86 33.52 9.5
5/8/2023 9:15:00 PM 13.48 56.264 0.049 6.83 33.97 9.53
5/8/2023 9:30:00 PM 13.34 56.012 0.049 6.83 34.29 9.56
5/8/2023 9:45:00 PM 13.2 55.76 0.049 6.83 33.74 9.59
5/8/2023 10:00:00 PM 13.08 55.544 0.05 6.84 34.28 9.62
5/8/2023 10:15:00 PM 12.96 55.328 0.05 6.82 34.41 9.65
5/8/2023 10:30:00 PM 12.85 55.13 0.05 6.81 34.48 9.68
5/8/2023 10:45:00 PM 12.75 54.95 0.05 6.82 34.26 9.7
5/8/2023 11:00:00 PM 12.65 54.77 0.05 6.82 34.1 9.73
5/8/2023 11:15:00 PM 12.55 54.59 0.05 6.81 34.18 9.77
5/8/2023 11:30:00 PM 12.44 54.392 0.05 6.79 33.92 9.78
5/8/2023 11:45:00 PM 12.34 54.212 0.05 6.79 33.84 9.81
5/9/2023 12:00:00 AM 12.24 54.032 0.05 6.8 34.08 9.84
5/9/2023 12:15:00 AM 12.14 53.852 0.05 6.79 34.06 9.87
5/9/2023 12:30:00 AM 12.05 53.69 0.05 6.79 34.15 9.9
5/9/2023 12:45:00 AM 11.96 53.528 0.05 6.79 34.71 9.92
5/9/2023 1:00:00 AM 11.88 53.384 0.05 6.79 34.19 9.94
5/9/2023 1:15:00 AM 11.79 53.222 0.05 6.8 34 9.96
5/9/2023 1:30:00 AM 11.72 53.096 0.05 6.8 35.13 9.99
5/9/2023 1:45:00 AM 11.65 52.97 0.05 6.81 34.62 10.01
5/9/2023 2:00:00 AM 11.58 52.844 0.05 6.8 34.86 10.01
5/9/2023 2:15:00 AM 11.51 52.718 0.05 6.79 34.6 10.04
5/9/2023 2:30:00 AM 11.44 52.592 0.05 6.8 34.99 10.06
5/9/2023 2:45:00 AM 11.38 52.484 0.05 6.8 34.56 10.08
5/9/2023 3:00:00 AM 11.31 52.358 0.05 6.79 35.14 10.1
5/9/2023 3:15:00 AM 11.26 52.268 0.05 6.78 35.32 10.11
5/9/2023 3:30:00 AM 11.2 52.16 0.05 6.8 35.33 10.13
5/9/2023 3:45:00 AM 11.14 52.052 0.05 6.78 35.48 10.15
5/9/2023 4:00:00 AM 11.08 51.944 0.05 6.79 34.65 10.17
5/9/2023 4:15:00 AM 11.02 51.836 0.05 6.75 36.18 10.19
5/9/2023 4:30:00 AM 10.97 51.746 0.05 6.78 35.78 10.21
5/9/2023 4:45:00 AM 10.91 51.638 0.05 6.79 37.16 10.22
5/9/2023 5:00:00 AM 10.86 51.548 0.05 6.83 37.35 10.24
5/9/2023 5:15:00 AM 10.8 51.44 0.05 6.76 35.59 10.27
5/9/2023 5:30:00 AM 10.76 51.368 0.05 6.8 35.77 10.3
5/9/2023 5:45:00 AM 10.71 51.278 0.05 6.8 35 10.35
5/9/2023 6:00:00 AM 10.68 51.224 0.05 6.81 35.57 10.42
5/9/2023 6:15:00 AM 10.66 51.188 0.05 6.81 35.75 10.49
5/9/2023 6:30:00 AM 10.64 51.152 0.05 6.84 35.42 10.56
5/9/2023 6:45:00 AM 10.62 51.116 0.05 6.85 34.88 10.63
5/9/2023 7:00:00 AM 10.62 51.116 0.05 6.88 35.73 10.76
5/9/2023 7:15:00 AM 10.67 51.206 0.05 6.94 35.21 10.91
5/9/2023 7:30:00 AM 10.68 51.224 0.05 6.95 35.15 10.89
5/9/2023 7:45:00 AM 10.69 51.242 0.05 6.94 36.23 10.97
5/9/2023 8:00:00 AM 10.74 51.332 0.05 7.03 36.91 11.15
5/9/2023 8:15:00 AM 10.81 51.458 0.05 7.04 34.84 11.1
5/9/2023 8:30:00 AM 10.88 51.584 0.049 7.07 36.66 11.16
5/9/2023 8:45:00 AM 10.95 51.71 0.049 7.07 35.17 11.13
5/9/2023 9:00:00 AM 11.03 51.854 0.049 7.1 35.06 11.18
5/9/2023 9:15:00 AM 11.12 52.016 0.049 7.14 34.89 11.2
5/9/2023 9:30:00 AM 11.21 52.178 0.049 7.14 35.4 11.19
5/9/2023 9:45:00 AM 11.31 52.358 0.049 7.19 34.74 11.24
5/9/2023 10:00:00 AM 11.51 52.718 0.049 7.28 34.99 11.48
5/9/2023 10:15:00 AM 11.76 53.168 0.049 7.33 35.33 11.44
5/9/2023 10:30:00 AM 11.89 53.402 0.049 7.32 34.66 11.54
5/9/2023 10:45:00 AM 12.19 53.942 0.048 7.34 35.54 11.46
5/9/2023 11:00:00 AM 12.4 54.32 0.048 7.3 35.76 11.03
5/9/2023 11:15:00 AM 12.69 54.842 0.048 7.31 35.15 11.24
5/9/2023 11:30:00 AM 12.94 55.292 0.048 7.29 35.29 11.01
5/9/2023 11:45:00 AM 13.27 55.886 0.048 7.32 35.12 11.06
5/9/2023 12:00:00 PM 13.51 56.318 0.048 7.32 36.3 10.96
5/9/2023 12:15:00 PM 13.81 56.858 0.048 7.43 35.87 10.9
5/9/2023 12:30:00 PM 14.08 57.344 0.048 7.41 35.77 10.81
5/9/2023 12:45:00 PM 14.34 57.812 0.048 7.38 35.68 10.7
5/9/2023 1:00:00 PM 14.58 58.244 0.048 7.4 35.96 10.64
5/9/2023 1:15:00 PM 14.81 58.658 0.048 7.41 36.34 10.59
5/9/2023 1:30:00 PM 15.03 59.054 0.048 7.41 36.23 10.51
5/9/2023 1:45:00 PM 15.23 59.414 0.048 7.4 37.26 10.45
5/9/2023 2:00:00 PM 15.42 59.756 0.048 7.41 36.64 10.39
5/9/2023 2:15:00 PM 15.59 60.062 0.048 7.41 35.99 10.29
5/9/2023 2:30:00 PM 15.74 60.332 0.048 7.38 36.22 10.22
5/9/2023 2:45:00 PM 15.87 60.566 0.048 7.41 36.4 10.19
5/9/2023 3:00:00 PM 15.97 60.746 0.048 7.41 36.59 10.13
5/9/2023 3:15:00 PM 16.04 60.872 0.048 7.38 35.74 10.09
5/9/2023 3:30:00 PM 16.07 60.926 0.048 7.38 35.85 10.06
5/9/2023 3:45:00 PM 16.09 60.962 0.048 7.3 36.39 10.01
5/9/2023 4:00:00 PM 16.09 60.962 0.048 7.33 36.94 9.99
5/9/2023 4:15:00 PM 16.08 60.944 0.048 7.33 36.92 9.97
5/9/2023 4:30:00 PM 16 60.8 0.048 7.32 36.61 9.93
5/9/2023 4:45:00 PM 15.94 60.692 0.048 7.31 36.35 9.92
5/9/2023 5:00:00 PM 15.88 60.584 0.048 7.31 36.57 9.91
5/9/2023 5:15:00 PM 15.8 60.44 0.048 7.27 36.93 9.87
5/9/2023 5:30:00 PM 15.67 60.206 0.048 7.27 37.14 9.84
5/9/2023 5:45:00 PM 15.54 59.972 0.048 7.29 37.24 9.79
5/9/2023 6:00:00 PM 15.38 59.684 0.048 7.2 37.67 9.75
5/9/2023 6:15:00 PM 15.21 59.378 0.048 7.16 36.95 9.69
5/9/2023 6:30:00 PM 15.05 59.09 0.049 7.09 37.23 9.63
5/9/2023 6:45:00 PM 14.87 58.766 0.049 7.06 38.03 9.59
5/9/2023 7:00:00 PM 14.7 58.46 0.049 7.04 37.78 9.55
5/9/2023 7:15:00 PM 14.52 58.136 0.049 6.99 38.58 9.51
5/9/2023 7:30:00 PM 14.34 57.812 0.049 6.96 37.97 9.49
5/9/2023 7:45:00 PM 14.16 57.488 0.049 6.93 37.45 9.48
5/9/2023 8:00:00 PM 13.98 57.164 0.049 6.92 37.55 9.5
5/9/2023 8:15:00 PM 13.79 56.822 0.05 6.9 36.98 9.51
5/9/2023 8:30:00 PM 13.6 56.48 0.05 6.89 38.16 9.54
5/9/2023 8:45:00 PM 13.42 56.156 0.05 6.89 37.7 9.58
5/9/2023 9:00:00 PM 13.24 55.832 0.05 6.86 38.5 9.61
5/9/2023 9:15:00 PM 13.07 55.526 0.05 6.87 38.55 9.65
5/9/2023 9:30:00 PM 12.9 55.22 0.05 6.85 38.94 9.69
5/9/2023 9:45:00 PM 12.73 54.914 0.05 6.83 38.27 9.73
5/9/2023 10:00:00 PM 12.57 54.626 0.05 6.84 38.6 9.77
5/9/2023 10:15:00 PM 12.41 54.338 0.05 6.83 38.78 9.81
5/9/2023 10:30:00 PM 12.25 54.05 0.05 6.83 38.38 9.85
5/9/2023 10:45:00 PM 12.1 53.78 0.05 6.84 38.71 9.89
5/9/2023 11:00:00 PM 11.95 53.51 0.05 6.82 38.15 9.93
5/9/2023 11:15:00 PM 11.8 53.24 0.05 6.82 38.87 9.97
5/9/2023 11:30:00 PM 11.65 52.97 0.05 6.81 39.29 10.01
5/9/2023 11:45:00 PM 11.51 52.718 0.05 6.81 38.96 10.05
5/10/2023 12:00:00 AM 11.37 52.466 0.05 6.81 38.87 10.1
5/10/2023 12:15:00 AM 11.24 52.232 0.05 6.81 38.88 10.13
5/10/2023 12:30:00 AM 11.1 51.98 0.05 6.82 38.99 10.17
5/10/2023 12:45:00 AM 10.98 51.764 0.05 6.81 39.04 10.21
5/10/2023 1:00:00 AM 10.85 51.53 0.051 6.81 39.71 10.24
5/10/2023 1:15:00 AM 10.73 51.314 0.051 6.82 39.61 10.28
5/10/2023 1:30:00 AM 10.6 51.08 0.051 6.82 39.69 10.31
5/10/2023 1:45:00 AM 10.49 50.882 0.051 6.81 39.86 10.34
5/10/2023 2:00:00 AM 10.37 50.666 0.051 6.81 39.58 10.37
5/10/2023 2:15:00 AM 10.25 50.45 0.051 6.81 41.14 10.41
5/10/2023 2:30:00 AM 10.14 50.252 0.051 6.81 39.56 10.44
5/10/2023 2:45:00 AM 10.03 50.054 0.051 6.81 39.73 10.47
5/10/2023 3:00:00 AM 9.92 49.856 0.051 6.82 40.01 10.51
5/10/2023 3:15:00 AM 9.81 49.658 0.051 6.81 38.84 10.54
5/10/2023 3:30:00 AM 9.7 49.46 0.051 6.82 39.56 10.57
5/10/2023 3:45:00 AM 9.6 49.28 0.051 6.8 40.02 10.6
5/10/2023 4:00:00 AM 9.49 49.082 0.051 6.79 40.16 10.64
5/10/2023 4:15:00 AM 9.39 48.902 0.051 6.8 39.82 10.67
5/10/2023 4:30:00 AM 9.28 48.704 0.051 6.8 40.4 10.7
5/10/2023 4:45:00 AM 9.18 48.524 0.051 6.81 40.4 10.73
5/10/2023 5:00:00 AM 9.07 48.326 0.051 6.8 40.32 10.77
5/10/2023 5:15:00 AM 8.98 48.164 0.051 6.81 39.51 10.81
5/10/2023 5:30:00 AM 8.88 47.984 0.051 6.81 40.35 10.88
5/10/2023 5:45:00 AM 8.79 47.822 0.051 6.82 40.91 10.95
5/10/2023 6:00:00 AM 8.72 47.696 0.051 6.83 39.82 11.03
5/10/2023 6:15:00 AM 8.64 47.552 0.051 6.84 40.41 11.14
5/10/2023 6:30:00 AM 8.59 47.462 0.05 6.87 39.3 11.24
5/10/2023 6:45:00 AM 8.55 47.39 0.05 6.89 39.88 11.32
5/10/2023 7:00:00 AM 8.54 47.372 0.05 6.92 40.11 11.43
5/10/2023 7:15:00 AM 8.55 47.39 0.05 6.98 39.81 11.55
5/10/2023 7:30:00 AM 8.58 47.444 0.05 7.03 39.37 11.62
5/10/2023 7:45:00 AM 8.64 47.552 0.05 7.09 40.7 11.69
5/10/2023 8:00:00 AM 8.73 47.714 0.05 7.19 39.86 11.77
5/10/2023 8:15:00 AM 8.83 47.894 0.05 7.25 40.02 11.8
5/10/2023 8:30:00 AM 8.96 48.128 0.05 7.32 39.96 11.96
5/10/2023 8:45:00 AM 9.09 48.362 0.05 7.37 39.81 12.01
5/10/2023 9:00:00 AM 9.27 48.686 0.05 7.44 39.28 12.08
5/10/2023 9:15:00 AM 9.46 49.028 0.05 7.46 39.12 12.02
5/10/2023 9:30:00 AM 9.65 49.37 0.049 7.41 39.41 12.12
5/10/2023 9:45:00 AM 9.86 49.748 0.049 7.46 39.91 12.09
5/10/2023 10:00:00 AM 10.11 50.198 0.049 7.45 39.8 12.13
5/10/2023 10:15:00 AM 10.39 50.702 0.049 7.43 40.02 12.1
5/10/2023 10:30:00 AM 10.67 51.206 0.049 7.35 39.32 12.02
5/10/2023 10:45:00 AM 10.96 51.728 0.049 7.32 40.88 11.88
5/10/2023 11:00:00 AM 11.28 52.304 0.049 7.32 39.83 11.77
5/10/2023 11:15:00 AM 11.6 52.88 0.049 7.32 40.19 11.68
5/10/2023 11:30:00 AM 11.93 53.474 0.049 7.32 40.26 11.55
5/10/2023 11:45:00 AM 12.24 54.032 0.049 7.32 40.06 11.44
5/10/2023 12:00:00 PM 12.55 54.59 0.049 7.31 39.95 11.35
5/10/2023 12:15:00 PM 12.84 55.112 0.049 7.31 39.03 11.25
5/10/2023 12:30:00 PM 13.15 55.67 0.049 7.37 40.52 11.17
5/10/2023 12:45:00 PM 13.43 56.174 0.049 7.33 40.17 11.06
5/10/2023 1:00:00 PM 13.71 56.678 0.049 7.35 39.97 10.99
5/10/2023 1:15:00 PM 13.97 57.146 0.048 7.35 38.77 10.91
5/10/2023 1:30:00 PM 14.25 57.65 0.048 7.36 40.02 10.83
5/10/2023 1:45:00 PM 14.49 58.082 0.048 7.37 39.56 10.75
5/10/2023 2:00:00 PM 14.71 58.478 0.048 7.38 39.25 10.66
5/10/2023 2:15:00 PM 14.92 58.856 0.048 7.4 40.84 10.57
5/10/2023 2:30:00 PM 15.11 59.198 0.048 7.39 40.58 10.49
5/10/2023 2:45:00 PM 15.27 59.486 0.048 7.41 41.85 10.44
5/10/2023 3:00:00 PM 15.41 59.738 0.048 7.42 41.1 10.36
5/10/2023 3:15:00 PM 15.54 59.972 0.048 7.42 41.44 10.31
5/10/2023 3:30:00 PM 15.64 60.152 0.048 7.33 41.85 10.24
5/10/2023 3:45:00 PM 15.72 60.296 0.048 7.35 41.08 10.21
5/10/2023 4:00:00 PM 15.73 60.314 0.048 7.35 41.92 10.14
5/10/2023 4:15:00 PM 15.74 60.332 0.048 7.34 41.7 10.1
5/10/2023 4:30:00 PM 15.76 60.368 0.048 7.33 42.19 10.08
5/10/2023 4:45:00 PM 15.75 60.35 0.048 7.33 41.5 10.06
5/10/2023 5:00:00 PM 15.76 60.368 0.048 7.33 41.99 10.02
5/10/2023 5:15:00 PM 15.75 60.35 0.048 7.3 42.72 9.98
5/10/2023 5:30:00 PM 15.72 60.296 0.048 7.28 41.3 9.91
5/10/2023 5:45:00 PM 15.65 60.17 0.048 7.23 41.73 9.85
5/10/2023 6:00:00 PM 15.55 59.99 0.049 7.2 41.79 9.79
5/10/2023 6:15:00 PM 15.42 59.756 0.049 7.17 41.5 9.72
5/10/2023 6:30:00 PM 15.28 59.504 0.049 7.1 42.16 9.65
5/10/2023 6:45:00 PM 15.13 59.234 0.049 7.06 42.47 9.59
5/10/2023 7:00:00 PM 14.99 58.982 0.049 7.02 42.49 9.53
5/10/2023 7:15:00 PM 14.84 58.712 0.049 6.99 43.03 9.48
5/10/2023 7:30:00 PM 14.69 58.442 0.049 6.95 42.64 9.43
5/10/2023 7:45:00 PM 14.53 58.154 0.05 6.91 43.32 9.41
5/10/2023 8:00:00 PM 14.36 57.848 0.05 6.89 43.47 9.4
5/10/2023 8:15:00 PM 14.19 57.542 0.05 6.87 40.41 9.41
5/10/2023 8:30:00 PM 14.02 57.236 0.05 6.88 40.2 9.43
5/10/2023 8:45:00 PM 13.86 56.948 0.05 6.85 40.08 9.45
5/10/2023 9:00:00 PM 13.7 56.66 0.05 6.88 41.06 9.48
5/10/2023 9:15:00 PM 13.55 56.39 0.05 6.85 40.88 9.5
5/10/2023 9:30:00 PM 13.39 56.102 0.05 6.85 40.72 9.53
5/10/2023 9:45:00 PM 13.24 55.832 0.051 6.84 40.91 9.57
5/10/2023 10:00:00 PM 13.09 55.562 0.051 6.79 40.6 9.61
5/10/2023 10:15:00 PM 12.94 55.292 0.051 6.8 40.4 9.65
5/10/2023 10:30:00 PM 12.8 55.04 0.051 6.81 40.31 9.67
5/10/2023 10:45:00 PM 12.65 54.77 0.051 6.82 40.43 9.71
5/10/2023 11:00:00 PM 12.51 54.518 0.051 6.8 40.69 9.75
5/10/2023 11:15:00 PM 12.37 54.266 0.051 6.81 41.02 9.79
5/10/2023 11:30:00 PM 12.23 54.014 0.051 6.8 40.7 9.82
5/10/2023 11:45:00 PM 12.09 53.762 0.051 6.8 40.39 9.86
5/11/2023 12:00:00 AM 11.96 53.528 0.051 6.8 40.7 9.9
5/11/2023 12:15:00 AM 11.83 53.294 0.051 6.79 41.15 9.93
5/11/2023 12:30:00 AM 11.7 53.06 0.051 6.82 40.07 9.97
5/11/2023 12:45:00 AM 11.57 52.826 0.051 6.8 40 10
5/11/2023 1:00:00 AM 11.45 52.61 0.051 6.8 39.87 10.03
5/11/2023 1:15:00 AM 11.33 52.394 0.051 6.79 39.87 10.07
5/11/2023 1:30:00 AM 11.22 52.196 0.051 6.79 39.7 10.1
5/11/2023 1:45:00 AM 11.1 51.98 0.051 6.8 40.29 10.13
5/11/2023 2:00:00 AM 10.98 51.764 0.051 6.79 39.79 10.15
5/11/2023 2:15:00 AM 10.88 51.584 0.051 6.8 40.6 10.19
5/11/2023 2:30:00 AM 10.77 51.386 0.051 6.8 41.55 10.22
5/11/2023 2:45:00 AM 10.66 51.188 0.051 6.8 40.86 10.24
5/11/2023 3:00:00 AM 10.55 50.99 0.052 6.8 40.98 10.28
5/11/2023 3:15:00 AM 10.45 50.81 0.052 6.79 41.3 10.3
5/11/2023 3:30:00 AM 10.35 50.63 0.051 6.8 40.76 10.33
5/11/2023 3:45:00 AM 10.24 50.432 0.052 6.81 40.59 10.38
5/11/2023 4:00:00 AM 10.14 50.252 0.052 6.82 40.94 10.41
5/11/2023 4:15:00 AM 10.05 50.09 0.052 6.8 40.38 10.44
5/11/2023 4:30:00 AM 9.95 49.91 0.051 6.79 42.12 10.46
5/11/2023 4:45:00 AM 9.85 49.73 0.051 6.79 40.64 10.49
5/11/2023 5:00:00 AM 9.76 49.568 0.052 6.81 40.57 10.53
5/11/2023 5:15:00 AM 9.67 49.406 0.051 6.8 40.25 10.59
5/11/2023 5:30:00 AM 9.59 49.262 0.051 6.82 41.36 10.66
5/11/2023 5:45:00 AM 9.51 49.118 0.051 6.82 37.99 10.74
5/11/2023 6:00:00 AM 9.44 48.992 0.051 6.85 37.43 10.83
5/11/2023 6:15:00 AM 9.39 48.902 0.051 6.86 37.85 10.94
5/11/2023 6:30:00 AM 9.35 48.83 0.051 6.89 37.96 11.04
5/11/2023 6:45:00 AM 9.31 48.758 0.051 6.9 37.68 11.12
5/11/2023 7:00:00 AM 9.3 48.74 0.051 6.94 38.87 11.24
5/11/2023 7:15:00 AM 9.33 48.794 0.051 7.01 38.33 11.33
5/11/2023 7:30:00 AM 9.36 48.848 0.051 7.06 39.14 11.42
5/11/2023 7:45:00 AM 9.44 48.992 0.051 7.14 38.29 11.47
5/11/2023 8:00:00 AM 9.51 49.118 0.051 7.24 38.13 11.53
5/11/2023 8:15:00 AM 9.65 49.37 0.051 7.35 38.05 11.59
5/11/2023 8:30:00 AM 9.77 49.586 0.05 7.43 39.17 11.72
5/11/2023 8:45:00 AM 9.94 49.892 0.05 7.5 38.87 11.83
5/11/2023 9:00:00 AM 10.13 50.234 0.05 7.54 38.75 11.88
5/11/2023 9:15:00 AM 10.35 50.63 0.05 7.57 38.9 11.82
5/11/2023 9:30:00 AM 10.58 51.044 0.05 7.57 38.63 11.93
5/11/2023 9:45:00 AM 10.84 51.512 0.05 7.57 38.09 11.9
5/11/2023 10:00:00 AM 11.11 51.998 0.05 7.52 38.51 11.89
5/11/2023 10:15:00 AM 11.39 52.502 0.05 7.49 38.46 11.87
5/11/2023 10:30:00 AM 11.69 53.042 0.05 7.47 38.58 11.77
5/11/2023 10:45:00 AM 12.01 53.618 0.05 7.43 38.8 11.67
5/11/2023 11:00:00 AM 12.33 54.194 0.05 7.43 38.7 11.57
5/11/2023 11:15:00 AM 12.66 54.788 0.049 7.43 39.03 11.49
5/11/2023 11:30:00 AM 13.01 55.418 0.05 7.42 39.28 11.37
5/11/2023 11:45:00 AM 13.35 56.03 0.049 7.44 38.92 11.25
5/11/2023 12:00:00 PM 13.68 56.624 0.049 7.5 40.38 11.12
5/11/2023 12:15:00 PM 13.95 57.11 0.049 7.48 40.42 11.03
5/11/2023 12:30:00 PM 14.23 57.614 0.049 7.5 40.6 10.98
5/11/2023 12:45:00 PM 14.55 58.19 0.049 7.5 40.54 10.81
5/11/2023 1:00:00 PM 14.78 58.604 0.049 7.49 39.82 10.78
5/11/2023 1:15:00 PM 15.14 59.252 0.049 7.51 40.64 10.71
5/11/2023 1:30:00 PM 15.49 59.882 0.049 7.54 40.24 10.65
5/11/2023 1:45:00 PM 15.79 60.422 0.049 7.56 40.21 10.57
5/11/2023 2:00:00 PM 16.04 60.872 0.049 7.55 40.95 10.44
5/11/2023 2:15:00 PM 16.19 61.142 0.049 7.52 40.92 10.38
5/11/2023 2:30:00 PM 16.29 61.322 0.049 7.5 41.25 10.26
5/11/2023 2:45:00 PM 16.51 61.718 0.049 7.53 40.99 10.23
5/11/2023 3:00:00 PM 16.59 61.862 0.049 7.53 41.45 10.17
5/11/2023 3:15:00 PM 16.55 61.79 0.049 7.51 42.62 10.09
5/11/2023 3:30:00 PM 16.45 61.61 0.049 7.46 41.26 9.99
5/11/2023 3:45:00 PM 16.44 61.592 0.049 7.43 41.59 9.96
5/11/2023 4:00:00 PM 16.47 61.646 0.049 7.42 42.17 9.96
5/11/2023 4:15:00 PM 16.5 61.7 0.049 7.42 41.46 9.96
5/11/2023 4:30:00 PM 16.48 61.664 0.049 7.41 42.3 9.92
5/11/2023 4:45:00 PM 16.43 61.574 0.049 7.34 43.09 9.88
5/11/2023 5:00:00 PM 16.43 61.574 0.049 7.35 42.75 9.9
5/11/2023 5:15:00 PM 16.41 61.538 0.049 7.34 42.32 9.86
5/11/2023 5:30:00 PM 16.38 61.484 0.049 7.3 44.38 9.79
5/11/2023 5:45:00 PM 16.29 61.322 0.049 7.26 39.49 9.69
5/11/2023 6:00:00 PM 16.19 61.142 0.049 7.2 39.09 9.61
5/11/2023 6:15:00 PM 16.11 60.998 0.05 7.17 39.37 9.53
5/11/2023 6:30:00 PM 16.04 60.872 0.05 7.14 38.98 9.45
5/11/2023 6:45:00 PM 15.96 60.728 0.05 7.09 39.37 9.39
5/11/2023 7:00:00 PM 15.87 60.566 0.05 7.05 40.5 9.33
5/11/2023 7:15:00 PM 15.77 60.386 0.05 7.02 40.8 9.26
5/11/2023 7:30:00 PM 15.65 60.17 0.05 6.99 40.99 9.21
5/11/2023 7:45:00 PM 15.51 59.918 0.051 6.96 41.54 9.17
5/11/2023 8:00:00 PM 15.38 59.684 0.051 6.93 41.3 9.13
5/11/2023 8:15:00 PM 15.23 59.414 0.051 6.92 42.68 9.14
5/11/2023 8:30:00 PM 15.09 59.162 0.051 6.9 42.08 9.11
5/11/2023 8:45:00 PM 14.95 58.91 0.051 6.89 40.95 9.14
5/11/2023 9:00:00 PM 14.81 58.658 0.051 6.88 42.4 9.14
5/11/2023 9:15:00 PM 14.67 58.406 0.051 6.87 42.86 9.19
5/11/2023 9:30:00 PM 14.55 58.19 0.051 6.83 42.81 9.16
5/11/2023 9:45:00 PM 14.42 57.956 0.051 6.83 44.98 9.21
5/11/2023 10:00:00 PM 14.29 57.722 0.051 6.84 44.67 9.2
5/11/2023 10:15:00 PM 14.17 57.506 0.051 6.85 43.99 9.25
5/11/2023 10:30:00 PM 14.04 57.272 0.052 6.85 44.34 9.34
5/11/2023 10:45:00 PM 13.92 57.056 0.052 6.84 44.98 9.35
5/11/2023 11:00:00 PM 13.79 56.822 0.052 6.83 46.02 9.34
5/11/2023 11:15:00 PM 13.66 56.588 0.052 6.85 46.33 9.41
5/11/2023 11:30:00 PM 13.52 56.336 0.052 6.84 45.43 9.47
5/11/2023 11:45:00 PM 13.39 56.102 0.052 6.83 46.52 9.5
5/12/2023 12:00:00 AM 13.26 55.868 0.052 6.82 46.64 9.53
5/12/2023 12:15:00 AM 13.13 55.634 0.052 6.83 47.03 9.56
5/12/2023 12:30:00 AM 13.01 55.418 0.052 6.83 46.19 9.6
5/12/2023 12:45:00 AM 12.89 55.202 0.052 6.83 41.09 9.57
5/12/2023 1:00:00 AM 12.77 54.986 0.052 6.83 39.51 9.64
5/12/2023 1:15:00 AM 12.65 54.77 0.052 6.83 40.17 9.66
5/12/2023 1:30:00 AM 12.54 54.572 0.052 6.84 40.71 9.7
5/12/2023 1:45:00 AM 12.42 54.356 0.052 6.84 40.54 9.75
5/12/2023 2:00:00 AM 12.32 54.176 0.052 6.83 39.37 9.76
5/12/2023 2:15:00 AM 12.21 53.978 0.052 6.83 40.2 9.78
5/12/2023 2:30:00 AM 12.11 53.798 0.052 6.82 40.67 9.78
5/12/2023 2:45:00 AM 12.01 53.618 0.052 6.83 40.23 9.88
5/12/2023 3:00:00 AM 11.91 53.438 0.052 6.84 40.57 9.87
5/12/2023 3:15:00 AM 11.81 53.258 0.052 6.84 41.15 9.91
5/12/2023 3:30:00 AM 11.71 53.078 0.052 6.84 40.48 9.89
5/12/2023 3:45:00 AM 11.62 52.916 0.052 6.83 40.38 9.98
5/12/2023 4:00:00 AM 11.52 52.736 0.052 6.84 41.6 9.98
5/12/2023 4:15:00 AM 11.43 52.574 0.052 6.84 41.11 10.03
5/12/2023 4:30:00 AM 11.34 52.412 0.053 6.84 41.11 9.99
5/12/2023 4:45:00 AM 11.25 52.25 0.053 6.84 41.79 10.05
5/12/2023 5:00:00 AM 11.16 52.088 0.052 6.84 41.74 10.11
5/12/2023 5:15:00 AM 11.08 51.944 0.052 6.84 41.13 10.15
5/12/2023 5:30:00 AM 11.01 51.818 0.052 6.85 42.33 10.14
5/12/2023 5:45:00 AM 10.94 51.692 0.052 6.86 41.93 10.23
5/12/2023 6:00:00 AM 10.87 51.566 0.052 6.87 42.09 10.3
5/12/2023 6:15:00 AM 10.83 51.494 0.052 6.89 41.4 10.41
5/12/2023 6:30:00 AM 10.8 51.44 0.052 6.92 41.22 10.57
5/12/2023 6:45:00 AM 10.78 51.404 0.052 6.96 42.1 10.74
5/12/2023 7:00:00 AM 10.77 51.386 0.052 6.99 42.02 10.85
5/12/2023 7:15:00 AM 10.8 51.44 0.052 7.06 41.98 10.89
5/12/2023 7:30:00 AM 10.85 51.53 0.052 7.12 42.2 10.98
5/12/2023 7:45:00 AM 10.93 51.674 0.052 7.21 42.24 11.04
5/12/2023 8:00:00 AM 11 51.8 0.051 7.28 41.5 11.13
5/12/2023 8:15:00 AM 11.09 51.962 0.051 7.39 42.24 11.14
5/12/2023 8:30:00 AM 11.21 52.178 0.051 7.57 42.81 11.26
5/12/2023 8:45:00 AM 11.4 52.52 0.051 7.71 42.45 11.25
5/12/2023 9:00:00 AM 11.56 52.808 0.051 7.76 43.22 11.23
5/12/2023 9:15:00 AM 11.76 53.168 0.051 7.78 42.97 11.26
5/12/2023 9:30:00 AM 11.98 53.564 0.051 7.76 43.17 11.23
5/12/2023 9:45:00 AM 12.18 53.924 0.051 7.75 42.75 11.25
5/12/2023 10:00:00 AM 12.42 54.356 0.051 7.7 42.73 11.29
5/12/2023 10:15:00 AM 12.68 54.824 0.05 7.68 43.21 11.24
5/12/2023 10:30:00 AM 13.02 55.436 0.05 7.68 42.75 11.16
5/12/2023 10:45:00 AM 13.35 56.03 0.05 7.64 43.25 11.05
5/12/2023 11:00:00 AM 13.67 56.606 0.05 7.6 43 11.06
5/12/2023 11:15:00 AM 13.98 57.164 0.05 7.58 42.83 10.98
5/12/2023 11:30:00 AM 14.26 57.668 0.05 7.59 43.93 10.95
5/12/2023 11:45:00 AM 14.59 58.262 0.05 7.61 43.19 10.88
5/12/2023 12:00:00 PM 14.88 58.784 0.05 7.61 44.48 10.82
5/12/2023 12:15:00 PM 15.19 59.342 0.05 7.63 43.6 10.76
5/12/2023 12:30:00 PM 15.51 59.918 0.05 7.64 44.04 10.69
5/12/2023 12:45:00 PM 15.79 60.422 0.05 7.65 45.28 10.62
5/12/2023 1:00:00 PM 16.11 60.998 0.05 7.66 44.44 10.56
5/12/2023 1:15:00 PM 16.37 61.466 0.05 7.67 44.03 10.49
5/12/2023 1:30:00 PM 16.68 62.024 0.05 7.69 43.51 10.43
5/12/2023 1:45:00 PM 16.95 62.51 0.05 7.7 44.32 10.35
5/12/2023 2:00:00 PM 17.2 62.96 0.05 7.7 43.73 10.28
5/12/2023 2:15:00 PM 17.4 63.32 0.05 7.69 44.63 10.2
5/12/2023 2:30:00 PM 17.59 63.662 0.05 7.69 43.82 10.14
5/12/2023 2:45:00 PM 17.77 63.986 0.05 7.67 44.1 10.08
5/12/2023 3:00:00 PM 17.93 64.274 0.05 7.66 44.56 10.01
5/12/2023 3:15:00 PM 18.07 64.526 0.05 7.65 43.8 9.95
5/12/2023 3:30:00 PM 18.18 64.724 0.05 7.64 44.7 9.9
5/12/2023 3:45:00 PM 18.27 64.886 0.05 7.63 45.29 9.84
5/12/2023 4:00:00 PM 18.34 65.012 0.05 7.61 45.59 9.79
5/12/2023 4:15:00 PM 18.35 65.03 0.05 7.63 45.07 9.73
5/12/2023 4:30:00 PM 18.39 65.102 0.05 7.61 45.84 9.68
5/12/2023 4:45:00 PM 18.38 65.084 0.05 7.58 44.69 9.64
5/12/2023 5:00:00 PM 18.36 65.048 0.05 7.55 45.63 9.59
5/12/2023 5:15:00 PM 18.33 64.994 0.05 7.51 46.38 9.53
5/12/2023 5:30:00 PM 18.29 64.922 0.05 7.46 46.31 9.46
5/12/2023 5:45:00 PM 18.22 64.796 0.05 7.39 46.92 9.38
5/12/2023 6:00:00 PM 18.14 64.652 0.05 7.34 47.45 9.29
5/12/2023 6:15:00 PM 18.06 64.508 0.05 7.28 46.59 9.2
5/12/2023 6:30:00 PM 17.97 64.346 0.05 7.22 46.55 9.12
5/12/2023 6:45:00 PM 17.88 64.184 0.051 7.17 47.86 9.03
5/12/2023 7:00:00 PM 17.78 64.004 0.051 7.13 47.96 8.94
5/12/2023 7:15:00 PM 17.66 63.788 0.051 7.07 48.39 8.86
5/12/2023 7:30:00 PM 17.54 63.572 0.051 7.03 47.84 8.8
5/12/2023 7:45:00 PM 17.41 63.338 0.051 7.01 48.85 8.76
5/12/2023 8:00:00 PM 17.28 63.104 0.052 6.98 47.52 8.73
5/12/2023 8:15:00 PM 17.14 62.852 0.052 6.96 49.48 8.73
5/12/2023 8:30:00 PM 17 62.6 0.052 6.95 48.26 8.73
5/12/2023 8:45:00 PM 16.86 62.348 0.052 6.93 39.66 8.74
5/12/2023 9:00:00 PM 16.73 62.114 0.052 6.92 39 8.75
5/12/2023 9:15:00 PM 16.6 61.88 0.052 6.91 40.22 8.77
5/12/2023 9:30:00 PM 16.46 61.628 0.053 6.9 40.45 8.8
5/12/2023 9:45:00 PM 16.34 61.412 0.053 6.9 41.27 8.82
5/12/2023 10:00:00 PM 16.21 61.178 0.053 6.89 39.95 8.85
5/12/2023 10:15:00 PM 16.08 60.944 0.053 6.89 40.04 8.88
5/12/2023 10:30:00 PM 15.95 60.71 0.053 6.88 39.7 8.9
5/12/2023 10:45:00 PM 15.82 60.476 0.053 6.87 41 8.93
5/12/2023 11:00:00 PM 15.7 60.26 0.053 6.88 39.91 8.96
5/12/2023 11:15:00 PM 15.57 60.026 0.053 6.87 39.9 8.99
5/12/2023 11:30:00 PM 15.45 59.81 0.053 6.87 40.56 9.01
5/12/2023 11:45:00 PM 15.34 59.612 0.053 6.87 39.65 9.04
5/13/2023 12:00:00 AM 15.23 59.414 0.053 6.87 40.8 9.07
5/13/2023 12:15:00 AM 15.11 59.198 0.053 6.87 42.03 9.1
5/13/2023 12:30:00 AM 14.99 58.982 0.053 6.87 40.15 9.12
5/13/2023 12:45:00 AM 14.88 58.784 0.053 6.84 41.48 9.15
5/13/2023 1:00:00 AM 14.77 58.586 0.053 6.86 39.81 9.18
5/13/2023 1:15:00 AM 14.66 58.388 0.053 6.87 41.36 9.21
5/13/2023 1:30:00 AM 14.55 58.19 0.053 6.88 41.19 9.23
5/13/2023 1:45:00 AM 14.45 58.01 0.053 6.86 42.07 9.26
5/13/2023 2:00:00 AM 14.35 57.83 0.053 6.87 41.96 9.29
5/13/2023 2:15:00 AM 14.26 57.668 0.053 6.87 41.86 9.3
5/13/2023 2:30:00 AM 14.17 57.506 0.053 6.86 42.23 9.33
5/13/2023 2:45:00 AM 14.08 57.344 0.054 6.86 41.66 9.35
5/13/2023 3:00:00 AM 14 57.2 0.053 6.87 41.18 9.38
5/13/2023 3:15:00 AM 13.92 57.056 0.054 6.86 42.55 9.4
5/13/2023 3:30:00 AM 13.83 56.894 0.053 6.86 41.55 9.42
5/13/2023 3:45:00 AM 13.76 56.768 0.053 6.87 41.58 9.44
5/13/2023 4:00:00 AM 13.68 56.624 0.054 6.87 42.19 9.46
5/13/2023 4:15:00 AM 13.61 56.498 0.054 6.87 41.76 9.48
5/13/2023 4:30:00 AM 13.54 56.372 0.054 6.88 41.46 9.5
5/13/2023 4:45:00 AM 13.47 56.246 0.054 6.86 41.85 9.52
5/13/2023 5:00:00 AM 13.41 56.138 0.054 6.86 43.47 9.54
5/13/2023 5:15:00 AM 13.36 56.048 0.054 6.87 43.67 9.57
5/13/2023 5:30:00 AM 13.31 55.958 0.054 6.88 42.72 9.62
5/13/2023 5:45:00 AM 13.26 55.868 0.054 6.89 43.26 9.69
5/13/2023 6:00:00 AM 13.23 55.814 0.053 6.9 43.53 9.79
5/13/2023 6:15:00 AM 13.21 55.778 0.053 6.93 43.62 9.89
5/13/2023 6:30:00 AM 13.18 55.724 0.053 6.95 42.35 9.98
5/13/2023 6:45:00 AM 13.17 55.706 0.053 6.96 43.51 10.05
5/13/2023 7:00:00 AM 13.15 55.67 0.053 6.99 42.84 10.09
5/13/2023 7:15:00 AM 13.14 55.652 0.053 6.99 42.99 10.17
5/13/2023 7:30:00 AM 13.15 55.67 0.053 7.03 42.91 10.29
5/13/2023 7:45:00 AM 13.17 55.706 0.053 7.06 44.14 10.4
5/13/2023 8:00:00 AM 13.2 55.76 0.053 7.1 43.06 10.49
5/13/2023 8:15:00 AM 13.25 55.85 0.052 7.14 43.83 10.58
5/13/2023 8:30:00 AM 13.31 55.958 0.052 7.19 42.18 10.64
5/13/2023 8:45:00 AM 13.36 56.048 0.052 7.22 43.76 10.68
5/13/2023 9:00:00 AM 13.41 56.138 0.052 7.24 43.87 10.71
5/13/2023 9:15:00 AM 13.45 56.21 0.052 7.27 42.72 10.73
5/13/2023 9:30:00 AM 13.5 56.3 0.052 7.3 42.89 10.73
5/13/2023 9:45:00 AM 13.56 56.408 0.052 7.33 42.4 10.76
5/13/2023 10:00:00 AM 13.64 56.552 0.052 7.36 43.53 10.78
5/13/2023 10:15:00 AM 13.75 56.75 0.052 7.41 42.51 10.82
5/13/2023 10:30:00 AM 13.82 56.876 0.051 7.44 43.37 10.8
5/13/2023 10:45:00 AM 13.93 57.074 0.051 7.49 43.49 10.84
5/13/2023 11:00:00 AM 14.11 57.398 0.051 7.55 43.75 10.85
5/13/2023 11:15:00 AM 14.28 57.704 0.051 7.6 43.76 10.84
5/13/2023 11:30:00 AM 14.46 58.028 0.051 7.65 44.92 10.84
5/13/2023 11:45:00 AM 14.63 58.334 0.051 7.69 42.44 10.83
5/13/2023 12:00:00 PM 14.85 58.73 0.051 7.73 43.45 10.8
5/13/2023 12:15:00 PM 14.99 58.982 0.051 7.76 44.15 10.76
5/13/2023 12:30:00 PM 15.2 59.36 0.051 7.79 43.88 10.73
5/13/2023 12:45:00 PM 15.42 59.756 0.051 7.82 44.13 10.7
5/13/2023 1:00:00 PM 15.59 60.062 0.05 7.84 44.38 10.67
5/13/2023 1:15:00 PM 15.76 60.368 0.05 7.86 45.39 10.6
5/13/2023 1:30:00 PM 15.92 60.656 0.05 7.89 45.26 10.55
5/13/2023 1:45:00 PM 16.03 60.854 0.05 7.9 45.77 10.53
5/13/2023 2:00:00 PM 16.16 61.088 0.05 7.91 43.84 10.48
5/13/2023 2:15:00 PM 16.31 61.358 0.05 7.93 43.8 10.46
5/13/2023 2:30:00 PM 16.48 61.664 0.05 7.92 45.55 10.4
5/13/2023 2:45:00 PM 16.58 61.844 0.05 7.94 43.84 10.36
5/13/2023 3:00:00 PM 16.72 62.096 0.05 7.95 43.96 10.33
5/13/2023 3:15:00 PM 16.76 62.168 0.05 7.93 43.17 10.29
5/13/2023 3:30:00 PM 16.81 62.258 0.05 7.93 44.3 10.24
5/13/2023 3:45:00 PM 16.94 62.492 0.05 7.92 43.71 10.21
5/13/2023 4:00:00 PM 16.97 62.546 0.05 7.9 44.3 10.15
5/13/2023 4:15:00 PM 17.03 62.654 0.05 7.87 43.67 10.1
5/13/2023 4:30:00 PM 17.06 62.708 0.05 7.83 44.2 10.03
5/13/2023 4:45:00 PM 17.03 62.654 0.05 7.77 44.06 9.96
5/13/2023 5:00:00 PM 17.02 62.636 0.05 7.7 43.76 9.9
5/13/2023 5:15:00 PM 17.02 62.636 0.05 7.65 45.38 9.86
5/13/2023 5:30:00 PM 17.02 62.636 0.05 7.6 45.65 9.81
5/13/2023 5:45:00 PM 16.97 62.546 0.051 7.54 45.53 9.71
5/13/2023 6:00:00 PM 16.89 62.402 0.051 7.45 47.64 9.6
5/13/2023 6:15:00 PM 16.79 62.222 0.051 7.38 46.32 9.51
5/13/2023 6:30:00 PM 16.66 61.988 0.051 7.31 45.97 9.39
5/13/2023 6:45:00 PM 16.56 61.808 0.051 7.24 48.01 9.31
5/13/2023 7:00:00 PM 16.46 61.628 0.051 7.19 48.7 9.24
5/13/2023 7:15:00 PM 16.35 61.43 0.052 7.14 48.12 9.17
5/13/2023 7:30:00 PM 16.23 61.214 0.052 7.1 47.98 9.1
5/13/2023 7:45:00 PM 16.12 61.016 0.052 7.06 49.04 9.04
5/13/2023 8:00:00 PM 16 60.8 0.052 7.03 47.67 9.01
5/13/2023 8:15:00 PM 15.88 60.584 0.052 7 50.97 9
5/13/2023 8:30:00 PM 15.75 60.35 0.053 6.98 48.06 8.99
5/13/2023 8:45:00 PM 15.62 60.116 0.052 6.97 49.2 9
5/13/2023 9:00:00 PM 15.49 59.882 0.053 6.95 48.79 9.01
5/13/2023 9:15:00 PM 15.36 59.648 0.053 6.94 49.75 9.03
5/13/2023 9:30:00 PM 15.23 59.414 0.053 6.94 48.67 9.06
5/13/2023 9:45:00 PM 15.1 59.18 0.053 6.93 50.91 9.08
5/13/2023 10:00:00 PM 14.98 58.964 0.053 6.93 46.65 9.11
5/13/2023 10:15:00 PM 14.85 58.73 0.053 6.91 49.35 9.14
5/13/2023 10:30:00 PM 14.72 58.496 0.053 6.92 50.16 9.16
5/13/2023 10:45:00 PM 14.59 58.262 0.053 6.91 49.28 9.19
5/13/2023 11:00:00 PM 14.46 58.028 0.053 6.91 50.68 9.22
5/13/2023 11:15:00 PM 14.33 57.794 0.053 6.91 51.9 9.25
5/13/2023 11:30:00 PM 14.19 57.542 0.054 6.91 49.94 9.28
5/13/2023 11:45:00 PM 14.06 57.308 0.054 6.91 52.47 9.31
5/14/2023 12:00:00 AM 13.93 57.074 0.054 6.9 50.66 9.36
5/14/2023 12:15:00 AM 13.8 56.84 0.054 6.9 51.49 9.39
5/14/2023 12:30:00 AM 13.66 56.588 0.054 6.9 50.78 9.42
5/14/2023 12:45:00 AM 13.53 56.354 0.054 6.9 51.4 9.45
5/14/2023 1:00:00 AM 13.41 56.138 0.054 6.9 51.2 9.48
5/14/2023 1:15:00 AM 13.28 55.904 0.054 6.89 50.89 9.51
5/14/2023 1:30:00 AM 13.16 55.688 0.054 6.9 52.17 9.54
5/14/2023 1:45:00 AM 13.03 55.454 0.054 6.9 50.1 9.57
5/14/2023 2:00:00 AM 12.91 55.238 0.054 6.9 51.69 9.6
5/14/2023 2:15:00 AM 12.79 55.022 0.054 6.9 51.77 9.62
5/14/2023 2:30:00 AM 12.67 54.806 0.054 6.9 51.41 9.67
5/14/2023 2:45:00 AM 12.55 54.59 0.054 6.89 52.45 9.71
5/14/2023 3:00:00 AM 12.43 54.374 0.054 6.89 52.18 9.74
5/14/2023 3:15:00 AM 12.32 54.176 0.054 6.9 51.16 9.78
5/14/2023 3:30:00 AM 12.21 53.978 0.054 6.89 52.86 9.81
5/14/2023 3:45:00 AM 12.1 53.78 0.054 6.89 52 9.84
5/14/2023 4:00:00 AM 11.99 53.582 0.054 6.89 51.88 9.87
5/14/2023 4:15:00 AM 11.89 53.402 0.054 6.89 54.44 9.91
5/14/2023 4:30:00 AM 11.79 53.222 0.055 6.88 52.68 9.93
5/14/2023 4:45:00 AM 11.69 53.042 0.054 6.88 52.77 9.96
5/14/2023 5:00:00 AM 11.6 52.88 0.054 6.89 52.56 10
5/14/2023 5:15:00 AM 11.51 52.718 0.054 6.89 53.81 10.05
5/14/2023 5:30:00 AM 11.43 52.574 0.054 6.91 52.63 10.12
5/14/2023 5:45:00 AM 11.36 52.448 0.054 6.92 53.63 10.22
5/14/2023 6:00:00 AM 11.3 52.34 0.054 6.94 54.23 10.33
5/14/2023 6:15:00 AM 11.26 52.268 0.054 6.96 54.63 10.45
5/14/2023 6:30:00 AM 11.22 52.196 0.054 6.98 53.38 10.56
5/14/2023 6:45:00 AM 11.19 52.142 0.054 7.01 53.29 10.68
5/14/2023 7:00:00 AM 11.18 52.124 0.053 7.04 53.47 10.78
5/14/2023 7:15:00 AM 11.17 52.106 0.053 7.08 52.93 10.87
5/14/2023 7:30:00 AM 11.21 52.178 0.053 7.15 55.8 10.94
5/14/2023 7:45:00 AM 11.27 52.286 0.053 7.21 53.83 11
5/14/2023 8:00:00 AM 11.36 52.448 0.053 7.32 52.35 11.1
5/14/2023 8:15:00 AM 11.47 52.646 0.053 7.46 52.97 11.14
5/14/2023 8:30:00 AM 11.62 52.916 0.053 7.57 51.73 11.2
5/14/2023 8:45:00 AM 11.76 53.168 0.052 7.69 53.19 11.24
5/14/2023 9:00:00 AM 11.93 53.474 0.052 7.76 54.61 11.26
5/14/2023 9:15:00 AM 12.14 53.852 0.052 7.76 53.48 11.22
5/14/2023 9:30:00 AM 12.36 54.248 0.052 7.73 53.52 11.27
5/14/2023 9:45:00 AM 12.62 54.716 0.052 7.68 52.33 11.23
5/14/2023 10:00:00 AM 12.88 55.184 0.052 7.67 53.83 11.23
5/14/2023 10:15:00 AM 13.16 55.688 0.052 7.65 52.92 11.21
5/14/2023 10:30:00 AM 13.46 56.228 0.052 7.62 51.89 11.17
5/14/2023 10:45:00 AM 13.76 56.768 0.052 7.59 53.75 11.1
5/14/2023 11:00:00 AM 14.07 57.326 0.052 7.58 54.54 11.04
5/14/2023 11:15:00 AM 14.38 57.884 0.052 7.57 54.31 11
5/14/2023 11:30:00 AM 14.7 58.46 0.052 7.59 54.33 10.95
5/14/2023 11:45:00 AM 15 59 0.051 7.6 54.13 10.88
5/14/2023 12:00:00 PM 15.3 59.54 0.051 7.61 55.16 10.82
5/14/2023 12:15:00 PM 15.56 60.008 0.051 7.66 52.51 10.77
5/14/2023 12:30:00 PM 15.84 60.512 0.051 7.67 53.56 10.71
5/14/2023 12:45:00 PM 16.02 60.836 0.051 7.67 53.55 10.65
5/14/2023 1:00:00 PM 16.23 61.214 0.051 7.7 52.14 10.61
5/14/2023 1:15:00 PM 16.4 61.52 0.051 7.74 52.97 10.57
5/14/2023 1:30:00 PM 16.56 61.808 0.051 7.76 51.9 10.52
5/14/2023 1:45:00 PM 16.71 62.078 0.051 7.78 51.42 10.47
5/14/2023 2:00:00 PM 16.85 62.33 0.051 7.78 52.63 10.43
5/14/2023 2:15:00 PM 16.91 62.438 0.051 7.79 53.25 10.38
5/14/2023 2:30:00 PM 16.87 62.366 0.051 7.8 52.48 10.35
5/14/2023 2:45:00 PM 16.85 62.33 0.051 7.81 53.58 10.32
5/14/2023 3:00:00 PM 16.85 62.33 0.051 7.83 52.31 10.3
5/14/2023 3:15:00 PM 16.86 62.348 0.051 7.84 52.45 10.28
5/14/2023 3:30:00 PM 16.88 62.384 0.051 7.84 51.21 10.25
5/14/2023 3:45:00 PM 16.92 62.456 0.051 7.83 49.69 10.21
5/14/2023 4:00:00 PM 16.92 62.456 0.051 7.83 51.9 10.18
5/14/2023 4:15:00 PM 16.92 62.456 0.051 7.81 50.93 10.13
5/14/2023 4:30:00 PM 16.92 62.456 0.051 7.77 50.66 10.08
5/14/2023 4:45:00 PM 16.86 62.348 0.051 7.74 51.52 10.04
5/14/2023 5:00:00 PM 16.83 62.294 0.051 7.7 50.78 10
5/14/2023 5:15:00 PM 16.76 62.168 0.051 7.66 50.77 9.95
5/14/2023 5:30:00 PM 16.65 61.97 0.051 7.61 50.96 9.91
5/14/2023 5:45:00 PM 16.54 61.772 0.051 7.55 52.16 9.84
5/14/2023 6:00:00 PM 16.41 61.538 0.051 7.49 51.33 9.77
5/14/2023 6:15:00 PM 16.28 61.304 0.051 7.42 52.3 9.7
5/14/2023 6:30:00 PM 16.16 61.088 0.051 7.36 52.34 9.62
5/14/2023 6:45:00 PM 16.05 60.89 0.052 7.3 52.95 9.53
5/14/2023 7:00:00 PM 15.95 60.71 0.052 7.24 52.72 9.42
5/14/2023 7:15:00 PM 15.83 60.494 0.052 7.18 53.85 9.32
5/14/2023 7:30:00 PM 15.7 60.26 0.052 7.14 52.57 9.24
5/14/2023 7:45:00 PM 15.56 60.008 0.052 7.09 52.94 9.18
5/14/2023 8:00:00 PM 15.41 59.738 0.053 7.06 54.52 9.16
5/14/2023 8:15:00 PM 15.26 59.468 0.053 7.04 54.16 9.15
5/14/2023 8:30:00 PM 15.1 59.18 0.053 7.02 54.27 9.14
5/14/2023 8:45:00 PM 14.95 58.91 0.053 7.01 53.29 9.16
5/14/2023 9:00:00 PM 14.8 58.64 0.053 7 53.65 9.19
5/14/2023 9:15:00 PM 14.64 58.352 0.053 7 54.04 9.2
5/14/2023 9:30:00 PM 14.48 58.064 0.053 6.99 54.8 9.23
5/14/2023 9:45:00 PM 14.33 57.794 0.053 6.98 55.35 9.26
5/14/2023 10:00:00 PM 14.17 57.506 0.054 6.98 54.75 9.3
5/14/2023 10:15:00 PM 14.02 57.236 0.054 6.97 54.28 9.34
5/14/2023 10:30:00 PM 13.87 56.966 0.054 6.97 55.69 9.37
5/14/2023 10:45:00 PM 13.73 56.714 0.054 6.96 55.86 9.4
5/14/2023 11:00:00 PM 13.58 56.444 0.054 6.96 55.52 9.44
5/14/2023 11:15:00 PM 13.44 56.192 0.054 6.96 55.52 9.48
5/14/2023 11:30:00 PM 13.3 55.94 0.054 6.96 54.95 9.51
5/14/2023 11:45:00 PM 13.16 55.688 0.054 6.96 55.52 9.55
5/15/2023 12:00:00 AM 13.02 55.436 0.054 6.95 54.36 9.59
5/15/2023 12:15:00 AM 12.87 55.166 0.054 6.96 56.54 9.62
5/15/2023 12:30:00 AM 12.73 54.914 0.054 6.95 55.61 9.66
5/15/2023 12:45:00 AM 12.59 54.662 0.054 6.95 55.89 9.7
5/15/2023 1:00:00 AM 12.45 54.41 0.054 6.95 56.82 9.74
5/15/2023 1:15:00 AM 12.31 54.158 0.054 6.95 55.12 9.78
5/15/2023 1:30:00 AM 12.17 53.906 0.054 6.95 57.23 9.81
5/15/2023 1:45:00 AM 12.04 53.672 0.054 6.94 55.51 9.85
5/15/2023 2:00:00 AM 11.9 53.42 0.054 6.95 54.62 9.89
5/15/2023 2:15:00 AM 11.76 53.168 0.054 6.95 56.78 9.92
5/15/2023 2:30:00 AM 11.63 52.934 0.054 6.95 45.11 9.96
5/15/2023 2:45:00 AM 11.5 52.7 0.054 6.95 44.64 9.99
5/15/2023 3:00:00 AM 11.36 52.448 0.054 6.94 44.85 10.04
5/15/2023 3:15:00 AM 11.22 52.196 0.054 6.94 45.37 10.08
5/15/2023 3:30:00 AM 11.09 51.962 0.054 6.94 45.02 10.11
5/15/2023 3:45:00 AM 10.95 51.71 0.054 6.94 44.36 10.15
5/15/2023 4:00:00 AM 10.82 51.476 0.054 6.95 44.51 10.19
5/15/2023 4:15:00 AM 10.7 51.26 0.054 6.94 45.29 10.22
5/15/2023 4:30:00 AM 10.57 51.026 0.054 6.94 45.72 10.26
5/15/2023 4:45:00 AM 10.44 50.792 0.055 6.94 44.16 10.3
5/15/2023 5:00:00 AM 10.31 50.558 0.055 6.94 44.69 10.35
5/15/2023 5:15:00 AM 10.2 50.36 0.054 6.96 45.67 10.42
5/15/2023 5:30:00 AM 10.09 50.162 0.055 6.96 45.89 10.51
5/15/2023 5:45:00 AM 9.98 49.964 0.054 6.97 45.55 10.62
5/15/2023 6:00:00 AM 9.89 49.802 0.054 6.99 45.9 10.73
5/15/2023 6:15:00 AM 9.83 49.694 0.054 7.02 44.47 10.86
5/15/2023 6:30:00 AM 9.78 49.604 0.054 7.05 45.9 10.98
5/15/2023 6:45:00 AM 9.73 49.514 0.054 7.07 44.21 11.09
5/15/2023 7:00:00 AM 9.72 49.496 0.054 7.09 45.95 11.19
5/15/2023 7:15:00 AM 9.73 49.514 0.054 7.05 44.16 11.29
5/15/2023 7:30:00 AM 9.77 49.586 0.054 7.08 43.81 11.37
5/15/2023 7:45:00 AM 9.84 49.712 0.054 7.15 45.09 11.44
5/15/2023 8:00:00 AM 9.92 49.856 0.053 7.23 46.4 11.51
5/15/2023 8:15:00 AM 10.04 50.072 0.053 7.32 44.78 11.57
5/15/2023 8:30:00 AM 10.19 50.342 0.053 7.39 44.31 11.62
5/15/2023 8:45:00 AM 10.35 50.63 0.053 7.45 44.85 11.67
5/15/2023 9:00:00 AM 10.53 50.954 0.053 7.49 44.73 11.68
5/15/2023 9:15:00 AM 10.75 51.35 0.053 7.49 45.72 11.66
5/15/2023 9:30:00 AM 10.99 51.782 0.053 7.47 44.98 11.69
5/15/2023 9:45:00 AM 11.25 52.25 0.053 7.48 45.74 11.68
5/15/2023 10:00:00 AM 11.53 52.754 0.053 7.5 45.61 11.66
5/15/2023 10:15:00 AM 11.82 53.276 0.052 7.5 44.53 11.63
5/15/2023 10:30:00 AM 12.14 53.852 0.052 7.51 44.73 11.57
5/15/2023 10:45:00 AM 12.47 54.446 0.052 7.52 45.43 11.5
5/15/2023 11:00:00 AM 12.8 55.04 0.052 7.53 45.32 11.43
5/15/2023 11:15:00 AM 13.12 55.616 0.052 7.55 46.88 11.36
5/15/2023 11:30:00 AM 13.45 56.21 0.052 7.58 46.96 11.31
5/15/2023 11:45:00 AM 13.77 56.786 0.052 7.59 47.21 11.24
5/15/2023 12:00:00 PM 14.08 57.344 0.052 7.62 48.48 11.18
5/15/2023 12:15:00 PM 14.36 57.848 0.052 7.64 48.77 11.1
5/15/2023 12:30:00 PM 14.64 58.352 0.052 7.67 52.75 11.02
5/15/2023 12:45:00 PM 14.94 58.892 0.052 7.7 48.25 10.95
5/15/2023 1:00:00 PM 15.19 59.342 0.052 7.72 48.57 10.89
5/15/2023 1:15:00 PM 15.44 59.792 0.052 7.75 48.14 10.84
5/15/2023 1:30:00 PM 15.65 60.17 0.052 7.78 48.02 10.77
5/15/2023 1:45:00 PM 15.86 60.548 0.051 7.8 49.11 10.71
5/15/2023 2:00:00 PM 16.08 60.944 0.051 7.82 50.32 10.63
5/15/2023 2:15:00 PM 16.28 61.304 0.051 7.82 49.65 10.55
5/15/2023 2:30:00 PM 16.46 61.628 0.051 7.83 50.02 10.5
5/15/2023 2:45:00 PM 16.6 61.88 0.051 7.83 50.43 10.44
5/15/2023 3:00:00 PM 16.75 62.15 0.051 7.83 49.96 10.36
5/15/2023 3:15:00 PM 16.87 62.366 0.051 7.82 47.01 10.3
5/15/2023 3:30:00 PM 16.95 62.51 0.051 7.83 46.97 10.26
5/15/2023 3:45:00 PM 17.03 62.654 0.051 7.82 47.47 10.19
5/15/2023 4:00:00 PM 17.07 62.726 0.051 7.81 48.26 10.13
5/15/2023 4:15:00 PM 17.1 62.78 0.051 7.8 46.86 10.08
5/15/2023 4:30:00 PM 17.09 62.762 0.051 7.78 46.47 10.03
5/15/2023 4:45:00 PM 17.07 62.726 0.051 7.75 46.39 9.97
5/15/2023 5:00:00 PM 17.03 62.654 0.051 7.72 45.53 9.9
5/15/2023 5:15:00 PM 16.99 62.582 0.051 7.67 45.72 9.87
5/15/2023 5:30:00 PM 16.93 62.474 0.051 7.62 45.33 9.8
5/15/2023 5:45:00 PM 16.85 62.33 0.052 7.56 44.95 9.67
5/15/2023 6:00:00 PM 16.78 62.204 0.052 7.51 46.13 9.64
5/15/2023 6:15:00 PM 16.68 62.024 0.052 7.44 45.65 9.54
5/15/2023 6:30:00 PM 16.58 61.844 0.052 7.38 46.85 9.46
5/15/2023 6:45:00 PM 16.46 61.628 0.052 7.31 46.03 9.36
5/15/2023 7:00:00 PM 16.34 61.412 0.052 7.26 46.69 9.26
5/15/2023 7:15:00 PM 16.21 61.178 0.053 7.2 47.02 9.16
5/15/2023 7:30:00 PM 16.07 60.926 0.053 7.16 47.9 9.08
5/15/2023 7:45:00 PM 15.92 60.656 0.053 7.12 46.65 9.01
5/15/2023 8:00:00 PM 15.77 60.386 0.053 7.08 48.32 8.97
5/15/2023 8:15:00 PM 15.61 60.098 0.053 7.06 48.83 8.96
5/15/2023 8:30:00 PM 15.45 59.81 0.054 7.04 48.18 8.96
5/15/2023 8:45:00 PM 15.28 59.504 0.054 7.02 46.61 8.97
5/15/2023 9:00:00 PM 15.11 59.198 0.054 7.01 47.23 8.99
5/15/2023 9:15:00 PM 14.93 58.874 0.054 7 44.97 9.01
5/15/2023 9:30:00 PM 14.76 58.568 0.054 6.99 45.22 9.04
5/15/2023 9:45:00 PM 14.59 58.262 0.054 6.98 45.86 9.07
5/15/2023 10:00:00 PM 14.42 57.956 0.054 6.97 45.53 9.1
5/15/2023 10:15:00 PM 14.25 57.65 0.054 6.97 45.99 9.14
5/15/2023 10:30:00 PM 14.08 57.344 0.054 6.97 47.27 9.18
5/15/2023 10:45:00 PM 13.91 57.038 0.054 6.97 45.02 9.21
5/15/2023 11:00:00 PM 13.74 56.732 0.055 6.96 45.78 9.25
5/15/2023 11:15:00 PM 13.57 56.426 0.055 6.96 46.34 9.3
5/15/2023 11:30:00 PM 13.39 56.102 0.055 6.96 43.34 9.35
5/15/2023 11:45:00 PM 13.22 55.796 0.055 6.96 44.29 9.38
5/16/2023 12:00:00 AM 13.05 55.49 0.055 6.95 46.26 9.43
5/16/2023 12:15:00 AM 12.88 55.184 0.055 6.96 46.18 9.47
5/16/2023 12:30:00 AM 12.72 54.896 0.055 6.96 46.68 9.51
5/16/2023 12:45:00 AM 12.55 54.59 0.055 6.95 45.8 9.56
5/16/2023 1:00:00 AM 12.39 54.302 0.055 6.95 46.35 9.6
5/16/2023 1:15:00 AM 12.23 54.014 0.055 6.96 46.43 9.65
5/16/2023 1:30:00 AM 12.08 53.744 0.055 6.95 45.19 9.68
5/16/2023 1:45:00 AM 11.92 53.456 0.055 6.95 44.85 9.73
5/16/2023 2:00:00 AM 11.77 53.186 0.055 6.94 46.45 9.77
5/16/2023 2:15:00 AM 11.62 52.916 0.055 6.95 46.7 9.81
5/16/2023 2:30:00 AM 11.47 52.646 0.055 6.95 47.32 9.85
5/16/2023 2:45:00 AM 11.33 52.394 0.055 6.95 45.52 9.89
5/16/2023 3:00:00 AM 11.19 52.142 0.055 6.96 45.42 9.93
5/16/2023 3:15:00 AM 11.04 51.872 0.055 6.95 46.5 9.96
5/16/2023 3:30:00 AM 10.9 51.62 0.055 6.95 46.57 10
5/16/2023 3:45:00 AM 10.76 51.368 0.055 6.96 46.98 10.05
5/16/2023 4:00:00 AM 10.61 51.098 0.055 6.95 46.75 10.07
5/16/2023 4:15:00 AM 10.48 50.864 0.055 6.96 47.23 10.12
5/16/2023 4:30:00 AM 10.35 50.63 0.055 6.96 47.57 10.16
5/16/2023 4:45:00 AM 10.22 50.396 0.055 6.96 46.82 10.2
5/16/2023 5:00:00 AM 10.1 50.18 0.055 6.96 46.33 10.25
5/16/2023 5:15:00 AM 9.99 49.982 0.055 6.96 46.01 10.33
5/16/2023 5:30:00 AM 9.88 49.784 0.055 6.97 47.68 10.42
5/16/2023 5:45:00 AM 9.78 49.604 0.055 6.98 47.18 10.52
5/16/2023 6:00:00 AM 9.68 49.424 0.055 6.92 46.52 10.62
5/16/2023 6:15:00 AM 9.61 49.298 0.055 6.95 45.64 10.75
5/16/2023 6:30:00 AM 9.56 49.208 0.055 6.98 46 10.86
5/16/2023 6:45:00 AM 9.52 49.136 0.055 7.01 46.87 10.98
5/16/2023 7:00:00 AM 9.5 49.1 0.055 7.05 48.53 11.08
5/16/2023 7:15:00 AM 9.51 49.118 0.054 7.11 47.21 11.19
5/16/2023 7:30:00 AM 9.56 49.208 0.054 7.18 48.05 11.29
5/16/2023 7:45:00 AM 9.63 49.334 0.054 7.22 45.48 11.35
5/16/2023 8:00:00 AM 9.72 49.496 0.054 7.3 46.07 11.42
5/16/2023 8:15:00 AM 9.83 49.694 0.054 7.37 47.07 11.47
5/16/2023 8:30:00 AM 9.98 49.964 0.054 7.46 45.94 11.53
5/16/2023 8:45:00 AM 10.17 50.306 0.054 7.54 46.84 11.58
5/16/2023 9:00:00 AM 10.36 50.648 0.054 7.56 48.22 11.59
5/16/2023 9:15:00 AM 10.58 51.044 0.053 7.54 46.67 11.57
5/16/2023 9:30:00 AM 10.81 51.458 0.053 7.49 47.03 11.58
5/16/2023 9:45:00 AM 11.05 51.89 0.053 7.5 47.57 11.56
5/16/2023 10:00:00 AM 11.31 52.358 0.053 7.52 47.82 11.57
5/16/2023 10:15:00 AM 11.61 52.898 0.053 7.53 48.61 11.54
5/16/2023 10:30:00 AM 11.79 53.222 0.053 7.52 48.52 11.45
5/16/2023 10:45:00 AM 12.06 53.708 0.053 7.55 47.05 11.43
5/16/2023 11:00:00 AM 12.31 54.158 0.053 7.56 46.93 11.36
5/16/2023 11:15:00 AM 12.39 54.302 0.053 7.57 46.91 11.32
5/16/2023 11:30:00 AM 12.61 54.698 0.053 7.6 47.18 11.27
5/16/2023 11:45:00 AM 13.04 55.472 0.052 7.64 50.23 11.23
5/16/2023 12:00:00 PM 13.24 55.832 0.052 7.65 50.5 11.13
5/16/2023 12:15:00 PM 13.41 56.138 0.052 7.67 51.1 11.09
5/16/2023 12:30:00 PM 13.68 56.624 0.052 7.7 50.14 11.05
5/16/2023 12:45:00 PM 13.89 57.002 0.052 7.71 48.37 11.01
5/16/2023 1:00:00 PM 14.06 57.308 0.052 7.73 47.96 10.93
5/16/2023 1:15:00 PM 14.23 57.614 0.052 7.75 13.78 10.86
5/16/2023 1:30:00 PM 14.35 57.83 0.052 7.77 14.13 10.81
5/16/2023 1:45:00 PM 14.44 57.992 0.052 7.79 14.16 10.75
5/16/2023 2:00:00 PM 14.56 58.208 0.052 7.8 13.98 10.71
5/16/2023 2:15:00 PM 14.7 58.46 0.052 7.83 14.22 10.66
5/16/2023 2:30:00 PM 14.92 58.856 0.052 7.84 13.98 10.62
5/16/2023 2:45:00 PM 15.01 59.018 0.052 7.85 14.34 10.57
5/16/2023 3:00:00 PM 15.06 59.108 0.052 7.84 14.06 10.51
5/16/2023 3:15:00 PM 15.11 59.198 0.052 7.85 13.98 10.48
5/16/2023 3:30:00 PM 15.26 59.468 0.052 7.84 13.96 10.43
5/16/2023 3:45:00 PM 15.27 59.486 0.052 7.84 14 10.39
5/16/2023 4:00:00 PM 15.3 59.54 0.052 7.83 14.35 10.34
5/16/2023 4:15:00 PM 15.36 59.648 0.052 7.81 14.16 10.3
5/16/2023 4:30:00 PM 15.36 59.648 0.052 7.79 14.23 10.22
5/16/2023 4:45:00 PM 15.35 59.63 0.052 7.75 14.16 10.18
5/16/2023 5:00:00 PM 15.39 59.702 0.052 7.72 14.54 10.13
5/16/2023 5:15:00 PM 15.39 59.702 0.051 7.68 14.26 10.08
5/16/2023 5:30:00 PM 15.38 59.684 0.052 7.63 14.22 10.01
5/16/2023 5:45:00 PM 15.35 59.63 0.052 7.58 14.23 9.93
5/16/2023 6:00:00 PM 15.3 59.54 0.052 7.51 14.29 9.85
5/16/2023 6:15:00 PM 15.23 59.414 0.052 7.45 14.36 9.74
5/16/2023 6:30:00 PM 15.15 59.27 0.052 7.39 14.39 9.63
5/16/2023 6:45:00 PM 15.06 59.108 0.052 7.32 14.71 9.54
5/16/2023 7:00:00 PM 14.97 58.946 0.052 7.26 15.32 9.43
5/16/2023 7:15:00 PM 14.87 58.766 0.053 7.2 14.72 9.33
5/16/2023 7:30:00 PM 14.76 58.568 0.053 7.16 14.72 9.24
5/16/2023 7:45:00 PM 14.66 58.388 0.053 7.12 14.65 9.17
5/16/2023 8:00:00 PM 14.55 58.19 0.053 7.09 15.33 9.12
5/16/2023 8:15:00 PM 14.45 58.01 0.054 7.06 15.05 9.1
5/16/2023 8:30:00 PM 14.34 57.812 0.054 7.04 15.04 9.08
5/16/2023 8:45:00 PM 14.24 57.632 0.054 7.02 15.07 9.08
5/16/2023 9:00:00 PM 14.12 57.416 0.054 7.01 15.2 9.09
5/16/2023 9:15:00 PM 14.02 57.236 0.054 7 15.35 9.1
5/16/2023 9:30:00 PM 13.91 57.038 0.054 6.99 15.27 9.12
5/16/2023 9:45:00 PM 13.79 56.822 0.054 6.98 15.36 9.13
5/16/2023 10:00:00 PM 13.67 56.606 0.054 6.98 15.64 9.15
5/16/2023 10:15:00 PM 13.56 56.408 0.055 6.98 15.48 9.17
5/16/2023 10:30:00 PM 13.44 56.192 0.055 6.98 15.6 9.2
5/16/2023 10:45:00 PM 13.32 55.976 0.055 6.96 15.53 9.23
5/16/2023 11:00:00 PM 13.2 55.76 0.055 6.96 15.51 9.26
5/16/2023 11:15:00 PM 13.08 55.544 0.055 6.97 15.51 9.29
5/16/2023 11:30:00 PM 12.96 55.328 0.055 6.96 15.46 9.32
5/16/2023 11:45:00 PM 12.85 55.13 0.055 6.95 15.72 9.35
5/17/2023 12:00:00 AM 12.73 54.914 0.055 6.95 15.74 9.37
5/17/2023 12:15:00 AM 12.61 54.698 0.055 6.95 15.77 9.4
5/17/2023 12:30:00 AM 12.49 54.482 0.055 6.95 15.59 9.44
5/17/2023 12:45:00 AM 12.38 54.284 0.055 6.95 15.87 9.47
5/17/2023 1:00:00 AM 12.26 54.068 0.055 6.95 15.85 9.5
5/17/2023 1:15:00 AM 12.14 53.852 0.055 6.94 15.87 9.54
5/17/2023 1:30:00 AM 12.04 53.672 0.055 6.94 15.87 9.57
5/17/2023 1:45:00 AM 11.93 53.474 0.055 6.94 15.9 9.61
5/17/2023 2:00:00 AM 11.82 53.276 0.056 6.94 16.18 9.64
5/17/2023 2:15:00 AM 11.71 53.078 0.056 6.94 16.05 9.66
5/17/2023 2:30:00 AM 11.6 52.88 0.056 6.94 15.87 9.7
5/17/2023 2:45:00 AM 11.48 52.664 0.056 6.94 16.03 9.74
5/17/2023 3:00:00 AM 11.38 52.484 0.056 6.94 15.89 9.77
5/17/2023 3:15:00 AM 11.28 52.304 0.056 6.94 16.02 9.8
5/17/2023 3:30:00 AM 11.18 52.124 0.056 6.95 15.89 9.83
5/17/2023 3:45:00 AM 11.08 51.944 0.056 6.94 16.12 9.86
5/17/2023 4:00:00 AM 10.99 51.782 0.056 6.93 16.09 9.89
5/17/2023 4:15:00 AM 10.9 51.62 0.056 6.93 15.95 9.92
5/17/2023 4:30:00 AM 10.81 51.458 0.056 6.94 16.16 9.96
5/17/2023 4:45:00 AM 10.72 51.296 0.056 6.94 16.17 9.99
5/17/2023 5:00:00 AM 10.67 51.206 0.056 6.94 15.9 10.02
5/17/2023 5:15:00 AM 10.61 51.098 0.056 6.95 16 10.08
5/17/2023 5:30:00 AM 10.57 51.026 0.056 6.96 15.8 10.15
5/17/2023 5:45:00 AM 10.54 50.972 0.056 6.97 15.67 10.21
5/17/2023 6:00:00 AM 10.51 50.918 0.055 6.98 15.89 10.3
5/17/2023 6:15:00 AM 10.49 50.882 0.055 7.01 15.84 10.44
5/17/2023 6:30:00 AM 10.48 50.864 0.055 7.04 15.87 10.59
5/17/2023 6:45:00 AM 10.5 50.9 0.055 7.08 15.68 10.74
5/17/2023 7:00:00 AM 10.52 50.936 0.055 7.12 15.75 10.85
5/17/2023 7:15:00 AM 10.57 51.026 0.055 7.18 15.61 10.95
5/17/2023 7:30:00 AM 10.64 51.152 0.055 7.29 15.76 11.04
5/17/2023 7:45:00 AM 10.73 51.314 0.055 7.31 15.77 11.1
5/17/2023 8:00:00 AM 10.83 51.494 0.055 7.39 15.72 11.17
5/17/2023 8:15:00 AM 10.95 51.71 0.054 7.51 15.61 11.21
5/17/2023 8:30:00 AM 11.08 51.944 0.054 7.59 15.38 11.25
5/17/2023 8:45:00 AM 11.2 52.16 0.054 7.64 15.51 11.3
5/17/2023 9:00:00 AM 11.37 52.466 0.054 7.64 15.44 11.3
5/17/2023 9:15:00 AM 11.56 52.808 0.054 7.61 15.37 11.27
5/17/2023 9:30:00 AM 11.78 53.204 0.054 7.59 15.5 11.33
5/17/2023 9:45:00 AM 12 53.6 0.054 7.57 15.6 11.31
5/17/2023 10:00:00 AM 12.23 54.014 0.054 7.58 15.74 11.32
5/17/2023 10:15:00 AM 12.45 54.41 0.053 7.58 15.47 11.31
5/17/2023 10:30:00 AM 12.71 54.878 0.054 7.58 15.41 11.26
5/17/2023 10:45:00 AM 12.97 55.346 0.053 7.58 15.58 11.2
5/17/2023 11:00:00 AM 13.26 55.868 0.053 7.57 15.56 11.14
5/17/2023 11:15:00 AM 13.53 56.354 0.053 7.58 15.55 11.09
5/17/2023 11:30:00 AM 13.81 56.858 0.053 7.59 15.77 11.04
5/17/2023 11:45:00 AM 14.08 57.344 0.053 7.6 15.61 10.98
5/17/2023 12:00:00 PM 14.36 57.848 0.053 7.62 15.77 10.92
5/17/2023 12:15:00 PM 14.62 58.316 0.053 7.63 16.05 10.87
5/17/2023 12:30:00 PM 14.87 58.766 0.053 7.64 16.07 10.81
5/17/2023 12:45:00 PM 15.11 59.198 0.053 7.66 15.87 10.75
5/17/2023 1:00:00 PM 15.33 59.594 0.053 7.67 15.92 10.69
5/17/2023 1:15:00 PM 15.55 59.99 0.053 7.69 16.34 10.65
5/17/2023 1:30:00 PM 15.74 60.332 0.053 7.7 16.04 10.57
5/17/2023 1:45:00 PM 15.89 60.602 0.053 7.71 16.14 10.54
5/17/2023 2:00:00 PM 16.03 60.854 0.053 7.72 16.04 10.48
5/17/2023 2:15:00 PM 16.1 60.98 0.053 7.73 16.17 10.45
5/17/2023 2:30:00 PM 16.16 61.088 0.053 7.75 16.05 10.42
5/17/2023 2:45:00 PM 16.21 61.178 0.053 7.76 15.95 10.39
5/17/2023 3:00:00 PM 16.24 61.232 0.053 7.78 15.82 10.34
5/17/2023 3:15:00 PM 16.24 61.232 0.052 7.79 15.81 10.31
5/17/2023 3:30:00 PM 16.22 61.196 0.053 7.8 15.85 10.28
5/17/2023 3:45:00 PM 16.2 61.16 0.052 7.8 15.87 10.26
5/17/2023 4:00:00 PM 16.16 61.088 0.052 7.79 15.83 10.22
5/17/2023 4:15:00 PM 16.11 60.998 0.052 7.78 15.58 10.19
5/17/2023 4:30:00 PM 16.05 60.89 0.052 7.77 15.38 10.15
5/17/2023 4:45:00 PM 15.98 60.764 0.052 7.76 15.34 10.1
5/17/2023 5:00:00 PM 15.88 60.584 0.052 7.71 15.88 10.05
5/17/2023 5:15:00 PM 15.79 60.422 0.052 7.68 15.78 10.01
5/17/2023 5:30:00 PM 15.68 60.224 0.052 7.63 15.92 9.95
5/17/2023 5:45:00 PM 15.56 60.008 0.053 7.58 16.14 9.9
5/17/2023 6:00:00 PM 15.45 59.81 0.053 7.52 15.5 9.84
5/17/2023 6:15:00 PM 15.31 59.558 0.053 7.47 16.09 9.78
5/17/2023 6:30:00 PM 15.18 59.324 0.053 7.41 15.66 9.7
5/17/2023 6:45:00 PM 15.04 59.072 0.053 7.35 16.27 9.61
5/17/2023 7:00:00 PM 14.88 58.784 0.053 7.3 15.89 9.52
5/17/2023 7:15:00 PM 14.74 58.532 0.053 7.23 15.93 9.42
5/17/2023 7:30:00 PM 14.58 58.244 0.053 7.19 15.85 9.35
5/17/2023 7:45:00 PM 14.41 57.938 0.054 7.15 16.81 9.28
5/17/2023 8:00:00 PM 14.24 57.632 0.054 7.11 16.17 9.26
5/17/2023 8:15:00 PM 14.07 57.326 0.054 7.09 16.23 9.24
5/17/2023 8:30:00 PM 13.9 57.02 0.054 7.07 16.1 9.23
5/17/2023 8:45:00 PM 13.73 56.714 0.055 7.06 16.35 9.25
5/17/2023 9:00:00 PM 13.56 56.408 0.054 7.04 16.52 9.27
5/17/2023 9:15:00 PM 13.38 56.084 0.055 7.03 16.47 9.3
5/17/2023 9:30:00 PM 13.21 55.778 0.055 7.01 16.44 9.34
5/17/2023 9:45:00 PM 13.04 55.472 0.055 7.01 16.61 9.37
5/17/2023 10:00:00 PM 12.86 55.148 0.055 7 16.41 9.42
5/17/2023 10:15:00 PM 12.68 54.824 0.055 6.99 16.46 9.45
5/17/2023 10:30:00 PM 12.51 54.518 0.055 6.99 16.52 9.49
5/17/2023 10:45:00 PM 12.34 54.212 0.055 6.99 16.95 9.55
5/17/2023 11:00:00 PM 12.17 53.906 0.055 6.99 16.61 9.59
5/17/2023 11:15:00 PM 12 53.6 0.055 6.98 16.43 9.64
5/17/2023 11:30:00 PM 11.84 53.312 0.055 6.98 16.56 9.68
5/17/2023 11:45:00 PM 11.67 53.006 0.055 6.98 16.68 9.73
5/18/2023 12:00:00 AM 11.5 52.7 0.056 6.97 17.37 9.78
5/18/2023 12:15:00 AM 11.33 52.394 0.056 6.98 16.65 9.83
5/18/2023 12:30:00 AM 11.17 52.106 0.056 6.97 16.66 9.88
5/18/2023 12:45:00 AM 11 51.8 0.056 6.97 17.09 9.93
5/18/2023 1:00:00 AM 10.84 51.512 0.056 6.97 16.65 9.99
5/18/2023 1:15:00 AM 10.68 51.224 0.056 6.97 16.74 10.03
5/18/2023 1:30:00 AM 10.52 50.936 0.056 6.97 16.72 10.08
5/18/2023 1:45:00 AM 10.37 50.666 0.056 6.97 16.82 10.13
5/18/2023 2:00:00 AM 10.22 50.396 0.056 6.97 16.82 10.18
5/18/2023 2:15:00 AM 10.07 50.126 0.056 6.97 16.88 10.23
5/18/2023 2:30:00 AM 9.92 49.856 0.056 6.96 16.89 10.27
5/18/2023 2:45:00 AM 9.78 49.604 0.056 6.97 16.81 10.31
5/18/2023 3:00:00 AM 9.64 49.352 0.056 6.97 16.71 10.36
5/18/2023 3:15:00 AM 9.5 49.1 0.056 6.98 16.88 10.4
5/18/2023 3:30:00 AM 9.37 48.866 0.056 6.98 16.89 10.45
5/18/2023 3:45:00 AM 9.24 48.632 0.056 6.97 16.87 10.49
5/18/2023 4:00:00 AM 9.11 48.398 0.056 6.96 16.96 10.53
5/18/2023 4:15:00 AM 8.98 48.164 0.056 6.87 17.04 10.58
5/18/2023 4:30:00 AM 8.85 47.93 0.056 6.81 17.19 10.61
5/18/2023 4:45:00 AM 8.73 47.714 0.056 6.81 17.02 10.65
5/18/2023 5:00:00 AM 8.61 47.498 0.056 6.82 17.04 10.71
5/18/2023 5:15:00 AM 8.49 47.282 0.056 6.83 16.94 10.78
5/18/2023 5:30:00 AM 8.38 47.084 0.056 6.86 16.95 10.87
5/18/2023 5:45:00 AM 8.28 46.904 0.056 6.86 17.25 10.98
5/18/2023 6:00:00 AM 8.19 46.742 0.056 6.88 17.1 11.1
5/18/2023 6:15:00 AM 8.14 46.652 0.055 6.92 17.01 11.24
5/18/2023 6:30:00 AM 8.1 46.58 0.055 6.95 16.96 11.36
5/18/2023 6:45:00 AM 8.07 46.526 0.055 6.99 16.94 11.48
5/18/2023 7:00:00 AM 8.06 46.508 0.055 7.03 16.9 11.6
5/18/2023 7:15:00 AM 8.08 46.544 0.055 7.09 16.93 11.7
5/18/2023 7:30:00 AM 8.13 46.634 0.055 7.18 17.18 11.8
5/18/2023 7:45:00 AM 8.19 46.742 0.055 7.23 17.18 11.85
5/18/2023 8:00:00 AM 8.28 46.904 0.055 7.29 16.9 11.93
5/18/2023 8:15:00 AM 8.4 47.12 0.055 7.43 16.74 11.99
5/18/2023 8:30:00 AM 8.55 47.39 0.055 7.51 17.2 12.05
5/18/2023 8:45:00 AM 8.72 47.696 0.055 7.59 16.92 12.13
5/18/2023 9:00:00 AM 8.91 48.038 0.055 7.59 16.86 12.09
5/18/2023 9:15:00 AM 9.13 48.434 0.054 7.57 16.83 12.07
5/18/2023 9:30:00 AM 9.37 48.866 0.054 7.56 16.88 12.14
5/18/2023 9:45:00 AM 9.64 49.352 0.054 7.55 16.78 12.08
5/18/2023 10:00:00 AM 9.93 49.874 0.054 7.56 16.78 12.08
5/18/2023 10:15:00 AM 10.23 50.414 0.054 7.56 16.83 12.06
5/18/2023 10:30:00 AM 10.55 50.99 0.054 7.56 17.27 12
5/18/2023 10:45:00 AM 10.9 51.62 0.054 7.54 17.08 11.93
5/18/2023 11:00:00 AM 11.24 52.232 0.054 7.54 17.37 11.83
5/18/2023 11:15:00 AM 11.56 52.808 0.053 7.55 17.71 11.73
5/18/2023 11:30:00 AM 11.94 53.492 0.053 7.54 18.08 11.65
5/18/2023 11:45:00 AM 12.3 54.14 0.053 7.56 18.57 11.58
5/18/2023 12:00:00 PM 12.62 54.716 0.053 7.56 18.64 11.5
5/18/2023 12:15:00 PM 12.99 55.382 0.053 7.58 19.25 11.42
5/18/2023 12:30:00 PM 13.33 55.994 0.053 7.59 19.68 11.34
5/18/2023 12:45:00 PM 13.62 56.516 0.053 7.59 20.22 11.25
5/18/2023 1:00:00 PM 13.91 57.038 0.053 7.59 20.17 11.17
5/18/2023 1:15:00 PM 14.18 57.524 0.053 7.61 20.13 11.11
5/18/2023 1:30:00 PM 14.39 57.902 0.053 7.63 20.62 11.03
5/18/2023 1:45:00 PM 14.6 58.28 0.053 7.64 20.53 10.97
5/18/2023 2:00:00 PM 14.81 58.658 0.053 7.65 21.12 10.89
5/18/2023 2:15:00 PM 15 59 0.053 7.64 22 10.8
5/18/2023 2:30:00 PM 15.15 59.27 0.053 7.65 20.29 10.72
5/18/2023 2:45:00 PM 15.27 59.486 0.053 7.65 19.12 10.67
5/18/2023 3:00:00 PM 15.38 59.684 0.053 7.66 19.33 10.63
5/18/2023 3:15:00 PM 15.46 59.828 0.053 7.64 18.95 10.55
5/18/2023 3:30:00 PM 15.54 59.972 0.053 7.65 18.88 10.5
5/18/2023 3:45:00 PM 15.58 60.044 0.053 7.65 18.75 10.44
5/18/2023 4:00:00 PM 15.63 60.134 0.053 7.64 18.83 10.38
5/18/2023 4:15:00 PM 15.61 60.098 0.053 7.63 18.48 10.3
5/18/2023 4:30:00 PM 15.6 60.08 0.053 7.62 18.31 10.28
5/18/2023 4:45:00 PM 15.56 60.008 0.053 7.6 17.9 10.23
5/18/2023 5:00:00 PM 15.51 59.918 0.053 7.58 18.77 10.16
5/18/2023 5:15:00 PM 15.49 59.882 0.053 7.55 17.5 10.11
5/18/2023 5:30:00 PM 15.43 59.774 0.053 7.52 17.22 10.04
5/18/2023 5:45:00 PM 15.38 59.684 0.053 7.49 17.19 9.99
5/18/2023 6:00:00 PM 15.31 59.558 0.053 7.45 17.27 9.93
5/18/2023 6:15:00 PM 15.22 59.396 0.053 7.41 17.42 9.86
5/18/2023 6:30:00 PM 15.13 59.234 0.053 7.36 17.22 9.78
5/18/2023 6:45:00 PM 15.04 59.072 0.053 7.31 17.33 9.68
5/18/2023 7:00:00 PM 14.93 58.874 0.053 7.26 17.42 9.57

These are provisional data and have not been subject to a quality assurance process, but rather are the raw data reported by the instrument.
H: value is above sensor operating range
L: value is below sensor operating range
Offline: station is not reporting data
NC: parameter is not collected at site

Data Availability & Limitations

Uncertainty and potential for error can be associated with environmental monitoring data. Provisional data have not been subject to a quality assurance process, but rather are the raw data reported by the instrument. Data users are cautioned to consider carefully the provisional nature of the information before using it for decisions that concern personal or public safety or the conduct of business that involves substantial monetary or operational consequences.

Approved data are currently available by request by emailing: [email protected]. Approved data have been subject to a quality assurance process to correct for equipment or fouling drift. Data recorded during equipment malfunctions have been removed.

View Historical Stations that have been discontinued.